﻿<?xml version="1.0" encoding="UTF-8" standalone="no" ?>
<gpx xmlns="http://www.topografix.com/GPX/1/1" creator="CompeGPS" version="1.1" xmlns:xsi="http://www.w3.org/2001/XMLSchema-instance" xsi:schemaLocation="http://www.topografix.com/GPX/1/1 http://www.topografix.com/GPX/1/1/gpx.xsd http://www.garmin.com/xmlschemas/GpxExtensions/v3 http://www.garmin.com/xmlschemas/GpxExtensionsv3.xsd http://www.garmin.com/xmlschemas/TrackPointExtension/v1 http://www.garmin.com/xmlschemas/TrackPointExtensionv1.xsd" xmlns:gpxtpx="http://www.garmin.com/xmlschemas/TrackPointExtension/v1">
  <metadata>
    <link href="http://www.compegps.com">
      <text>CompeGPS TEAM, SL</text>
    </link>
    <time>2012-12-20T08:30:19Z</time>
    <bounds maxlat="42.852572" maxlon="0.519000" minlat="42.836042" minlon="0.467779"/>
  </metadata>
<wpt lat="42.851948" lon="0.518633">
<ele>1250</ele>
<name>Cires</name>
</wpt>
<wpt lat="42.843764" lon="0.503526">
<ele>1647</ele>
<name>Cabane de Cires</name>
</wpt>
<wpt lat="42.836042" lon="0.504106">
<ele>1912</ele>
<name>Honteyde</name>
</wpt>
<wpt lat="42.845532" lon="0.486592">
<ele>1970</ele>
<name>Cap de la Lit</name>
</wpt>
<wpt lat="42.845982" lon="0.472377">
<ele>1992</ele>
<name>Port de Pinate</name>
</wpt>
<wpt lat="42.846974" lon="0.467455">
<ele>2091</ele>
<name>Pouy-Louby</name>
</wpt>
<wpt lat="42.845694" lon="0.486862">
<ele>1970</ele>
<name>Cap de la Lit</name>
</wpt>
<wpt lat="42.847250" lon="0.501604">
<ele>1600</ele>
<name>Piste 1600m</name>
</wpt>
<wpt lat="42.847324" lon="0.509381">
<ele>1450</ele>
<name>Piste 1450m</name>
</wpt>
  <trk>
    <name>Pouy-Louby</name>
    <trkseg>
      <trkpt lat="42.851948" lon="0.518633">
        <ele>1188.8</ele>
        <time>2012-12-19T08:31:52Z</time>
        <name>Cires</name>
      </trkpt>
      <trkpt lat="42.852048" lon="0.518895">
        <ele>1261.4</ele>
        <time>2012-12-19T08:40:46Z</time>
      </trkpt>
      <trkpt lat="42.852075" lon="0.518920">
        <ele>1260.9</ele>
        <time>2012-12-19T08:41:29Z</time>
      </trkpt>
      <trkpt lat="42.852196" lon="0.518939">
        <ele>1259.5</ele>
        <time>2012-12-19T08:42:36Z</time>
      </trkpt>
      <trkpt lat="42.852298" lon="0.518906">
        <ele>1258.5</ele>
        <time>2012-12-19T08:42:44Z</time>
      </trkpt>
      <trkpt lat="42.852399" lon="0.518918">
        <ele>1258.0</ele>
        <time>2012-12-19T08:42:53Z</time>
      </trkpt>
      <trkpt lat="42.852492" lon="0.518870">
        <ele>1257.1</ele>
        <time>2012-12-19T08:43:01Z</time>
      </trkpt>
      <trkpt lat="42.852544" lon="0.518764">
        <ele>1257.1</ele>
        <time>2012-12-19T08:43:09Z</time>
      </trkpt>
      <trkpt lat="42.852544" lon="0.518623">
        <ele>1256.6</ele>
        <time>2012-12-19T08:43:18Z</time>
      </trkpt>
      <trkpt lat="42.852481" lon="0.518519">
        <ele>1256.1</ele>
        <time>2012-12-19T08:43:26Z</time>
      </trkpt>
      <trkpt lat="42.852396" lon="0.518443">
        <ele>1255.1</ele>
        <time>2012-12-19T08:43:34Z</time>
      </trkpt>
      <trkpt lat="42.852315" lon="0.518362">
        <ele>1255.1</ele>
        <time>2012-12-19T08:43:42Z</time>
      </trkpt>
      <trkpt lat="42.852233" lon="0.518261">
        <ele>1254.7</ele>
        <time>2012-12-19T08:43:50Z</time>
      </trkpt>
      <trkpt lat="42.852164" lon="0.518153">
        <ele>1254.7</ele>
        <time>2012-12-19T08:43:59Z</time>
      </trkpt>
      <trkpt lat="42.852076" lon="0.518116">
        <ele>1253.7</ele>
        <time>2012-12-19T08:44:14Z</time>
      </trkpt>
      <trkpt lat="42.852005" lon="0.518021">
        <ele>1252.2</ele>
        <time>2012-12-19T08:44:25Z</time>
      </trkpt>
      <trkpt lat="42.851921" lon="0.517929">
        <ele>1250.8</ele>
        <time>2012-12-19T08:44:35Z</time>
      </trkpt>
      <trkpt lat="42.851847" lon="0.517820">
        <ele>1249.8</ele>
        <time>2012-12-19T08:44:44Z</time>
      </trkpt>
      <trkpt lat="42.851804" lon="0.517700">
        <ele>1248.4</ele>
        <time>2012-12-19T08:44:53Z</time>
      </trkpt>
      <trkpt lat="42.851744" lon="0.517568">
        <ele>1246.5</ele>
        <time>2012-12-19T08:45:02Z</time>
      </trkpt>
      <trkpt lat="42.851684" lon="0.517444">
        <ele>1245.5</ele>
        <time>2012-12-19T08:45:13Z</time>
      </trkpt>
      <trkpt lat="42.851616" lon="0.517315">
        <ele>1243.1</ele>
        <time>2012-12-19T08:45:23Z</time>
      </trkpt>
      <trkpt lat="42.851548" lon="0.517230">
        <ele>1243.1</ele>
        <time>2012-12-19T08:45:33Z</time>
      </trkpt>
      <trkpt lat="42.851469" lon="0.517141">
        <ele>1242.6</ele>
        <time>2012-12-19T08:45:43Z</time>
      </trkpt>
      <trkpt lat="42.851397" lon="0.517134">
        <ele>1243.1</ele>
        <time>2012-12-19T08:46:11Z</time>
      </trkpt>
      <trkpt lat="42.851314" lon="0.517174">
        <ele>1243.1</ele>
        <time>2012-12-19T08:46:25Z</time>
      </trkpt>
      <trkpt lat="42.851246" lon="0.517272">
        <ele>1245.0</ele>
        <time>2012-12-19T08:46:38Z</time>
      </trkpt>
      <trkpt lat="42.851176" lon="0.517368">
        <ele>1244.6</ele>
        <time>2012-12-19T08:46:49Z</time>
      </trkpt>
      <trkpt lat="42.851099" lon="0.517450">
        <ele>1246.0</ele>
        <time>2012-12-19T08:46:58Z</time>
      </trkpt>
      <trkpt lat="42.851012" lon="0.517533">
        <ele>1247.0</ele>
        <time>2012-12-19T08:47:10Z</time>
      </trkpt>
      <trkpt lat="42.850924" lon="0.517608">
        <ele>1249.4</ele>
        <time>2012-12-19T08:47:22Z</time>
      </trkpt>
      <trkpt lat="42.850880" lon="0.517607">
        <ele>1249.8</ele>
        <time>2012-12-19T08:48:21Z</time>
      </trkpt>
      <trkpt lat="42.850750" lon="0.517598">
        <ele>1251.3</ele>
        <time>2012-12-19T08:48:32Z</time>
      </trkpt>
      <trkpt lat="42.850651" lon="0.517620">
        <ele>1252.7</ele>
        <time>2012-12-19T08:48:43Z</time>
      </trkpt>
      <trkpt lat="42.850541" lon="0.517673">
        <ele>1254.7</ele>
        <time>2012-12-19T08:48:55Z</time>
      </trkpt>
      <trkpt lat="42.850461" lon="0.517728">
        <ele>1255.6</ele>
        <time>2012-12-19T08:49:07Z</time>
      </trkpt>
      <trkpt lat="42.850382" lon="0.517839">
        <ele>1257.1</ele>
        <time>2012-12-19T08:49:22Z</time>
      </trkpt>
      <trkpt lat="42.850294" lon="0.517978">
        <ele>1259.9</ele>
        <time>2012-12-19T08:49:35Z</time>
      </trkpt>
      <trkpt lat="42.850224" lon="0.518118">
        <ele>1261.9</ele>
        <time>2012-12-19T08:49:47Z</time>
      </trkpt>
      <trkpt lat="42.850135" lon="0.518248">
        <ele>1263.8</ele>
        <time>2012-12-19T08:50:00Z</time>
      </trkpt>
      <trkpt lat="42.850046" lon="0.518357">
        <ele>1265.7</ele>
        <time>2012-12-19T08:50:12Z</time>
      </trkpt>
      <trkpt lat="42.849948" lon="0.518430">
        <ele>1267.2</ele>
        <time>2012-12-19T08:50:25Z</time>
      </trkpt>
      <trkpt lat="42.849826" lon="0.518461">
        <ele>1269.6</ele>
        <time>2012-12-19T08:50:39Z</time>
      </trkpt>
      <trkpt lat="42.849702" lon="0.518464">
        <ele>1271.0</ele>
        <time>2012-12-19T08:50:55Z</time>
      </trkpt>
      <trkpt lat="42.849596" lon="0.518492">
        <ele>1274.4</ele>
        <time>2012-12-19T08:51:12Z</time>
      </trkpt>
      <trkpt lat="42.849478" lon="0.518545">
        <ele>1277.2</ele>
        <time>2012-12-19T08:51:29Z</time>
      </trkpt>
      <trkpt lat="42.849364" lon="0.518601">
        <ele>1280.1</ele>
        <time>2012-12-19T08:51:45Z</time>
      </trkpt>
      <trkpt lat="42.849269" lon="0.518671">
        <ele>1282.1</ele>
        <time>2012-12-19T08:51:59Z</time>
      </trkpt>
      <trkpt lat="42.849174" lon="0.518745">
        <ele>1284.9</ele>
        <time>2012-12-19T08:52:15Z</time>
      </trkpt>
      <trkpt lat="42.849080" lon="0.518850">
        <ele>1287.8</ele>
        <time>2012-12-19T08:52:32Z</time>
      </trkpt>
      <trkpt lat="42.849008" lon="0.518757">
        <ele>1289.3</ele>
        <time>2012-12-19T08:52:58Z</time>
      </trkpt>
      <trkpt lat="42.849030" lon="0.518625">
        <ele>1291.7</ele>
        <time>2012-12-19T08:53:11Z</time>
      </trkpt>
      <trkpt lat="42.849095" lon="0.518516">
        <ele>1293.6</ele>
        <time>2012-12-19T08:53:25Z</time>
      </trkpt>
      <trkpt lat="42.849153" lon="0.518385">
        <ele>1296.0</ele>
        <time>2012-12-19T08:53:40Z</time>
      </trkpt>
      <trkpt lat="42.849217" lon="0.518269">
        <ele>1297.4</ele>
        <time>2012-12-19T08:53:53Z</time>
      </trkpt>
      <trkpt lat="42.849251" lon="0.518123">
        <ele>1299.8</ele>
        <time>2012-12-19T08:54:06Z</time>
      </trkpt>
      <trkpt lat="42.849298" lon="0.518000">
        <ele>1301.3</ele>
        <time>2012-12-19T08:54:20Z</time>
      </trkpt>
      <trkpt lat="42.849345" lon="0.517866">
        <ele>1303.2</ele>
        <time>2012-12-19T08:54:36Z</time>
      </trkpt>
      <trkpt lat="42.849385" lon="0.517739">
        <ele>1305.6</ele>
        <time>2012-12-19T08:54:51Z</time>
      </trkpt>
      <trkpt lat="42.849415" lon="0.517591">
        <ele>1307.5</ele>
        <time>2012-12-19T08:55:05Z</time>
      </trkpt>
      <trkpt lat="42.849438" lon="0.517443">
        <ele>1309.9</ele>
        <time>2012-12-19T08:55:21Z</time>
      </trkpt>
      <trkpt lat="42.849451" lon="0.517269">
        <ele>1312.3</ele>
        <time>2012-12-19T08:55:37Z</time>
      </trkpt>
      <trkpt lat="42.849447" lon="0.517120">
        <ele>1314.3</ele>
        <time>2012-12-19T08:55:52Z</time>
      </trkpt>
      <trkpt lat="42.849484" lon="0.516986">
        <ele>1316.2</ele>
        <time>2012-12-19T08:56:06Z</time>
      </trkpt>
      <trkpt lat="42.849531" lon="0.516841">
        <ele>1318.6</ele>
        <time>2012-12-19T08:56:23Z</time>
      </trkpt>
      <trkpt lat="42.849539" lon="0.516691">
        <ele>1321.5</ele>
        <time>2012-12-19T08:56:39Z</time>
      </trkpt>
      <trkpt lat="42.849531" lon="0.516570">
        <ele>1323.9</ele>
        <time>2012-12-19T08:56:57Z</time>
      </trkpt>
      <trkpt lat="42.849568" lon="0.516333">
        <ele>1327.2</ele>
        <time>2012-12-19T08:57:13Z</time>
      </trkpt>
      <trkpt lat="42.849609" lon="0.516180">
        <ele>1329.6</ele>
        <time>2012-12-19T08:57:29Z</time>
      </trkpt>
      <trkpt lat="42.849640" lon="0.516033">
        <ele>1332.0</ele>
        <time>2012-12-19T08:57:47Z</time>
      </trkpt>
      <trkpt lat="42.849663" lon="0.515896">
        <ele>1334.0</ele>
        <time>2012-12-19T08:58:03Z</time>
      </trkpt>
      <trkpt lat="42.849655" lon="0.515745">
        <ele>1336.8</ele>
        <time>2012-12-19T08:58:19Z</time>
      </trkpt>
      <trkpt lat="42.849687" lon="0.515601">
        <ele>1338.8</ele>
        <time>2012-12-19T08:58:34Z</time>
      </trkpt>
      <trkpt lat="42.849715" lon="0.515474">
        <ele>1341.2</ele>
        <time>2012-12-19T08:58:46Z</time>
      </trkpt>
      <trkpt lat="42.849755" lon="0.515357">
        <ele>1342.6</ele>
        <time>2012-12-19T08:59:00Z</time>
      </trkpt>
      <trkpt lat="42.849752" lon="0.515199">
        <ele>1345.0</ele>
        <time>2012-12-19T08:59:14Z</time>
      </trkpt>
      <trkpt lat="42.849754" lon="0.515038">
        <ele>1346.9</ele>
        <time>2012-12-19T08:59:31Z</time>
      </trkpt>
      <trkpt lat="42.849707" lon="0.514846">
        <ele>1349.8</ele>
        <time>2012-12-19T08:59:47Z</time>
      </trkpt>
      <trkpt lat="42.849723" lon="0.514715">
        <ele>1352.2</ele>
        <time>2012-12-19T09:00:03Z</time>
      </trkpt>
      <trkpt lat="42.849748" lon="0.514569">
        <ele>1354.6</ele>
        <time>2012-12-19T09:00:18Z</time>
      </trkpt>
      <trkpt lat="42.849773" lon="0.514430">
        <ele>1356.6</ele>
        <time>2012-12-19T09:00:34Z</time>
      </trkpt>
      <trkpt lat="42.849777" lon="0.514284">
        <ele>1359.0</ele>
        <time>2012-12-19T09:00:49Z</time>
      </trkpt>
      <trkpt lat="42.849727" lon="0.514122">
        <ele>1362.3</ele>
        <time>2012-12-19T09:01:08Z</time>
      </trkpt>
      <trkpt lat="42.849678" lon="0.513986">
        <ele>1364.2</ele>
        <time>2012-12-19T09:01:24Z</time>
      </trkpt>
      <trkpt lat="42.849582" lon="0.513845">
        <ele>1367.1</ele>
        <time>2012-12-19T09:01:40Z</time>
      </trkpt>
      <trkpt lat="42.849497" lon="0.513684">
        <ele>1370.0</ele>
        <time>2012-12-19T09:01:58Z</time>
      </trkpt>
      <trkpt lat="42.849415" lon="0.513555">
        <ele>1372.4</ele>
        <time>2012-12-19T09:02:15Z</time>
      </trkpt>
      <trkpt lat="42.849345" lon="0.513453">
        <ele>1372.9</ele>
        <time>2012-12-19T09:05:20Z</time>
      </trkpt>
      <trkpt lat="42.849269" lon="0.513405">
        <ele>1375.8</ele>
        <time>2012-12-19T09:06:09Z</time>
      </trkpt>
      <trkpt lat="42.849221" lon="0.513310">
        <ele>1377.7</ele>
        <time>2012-12-19T09:06:23Z</time>
      </trkpt>
      <trkpt lat="42.849153" lon="0.513204">
        <ele>1380.1</ele>
        <time>2012-12-19T09:06:36Z</time>
      </trkpt>
      <trkpt lat="42.849097" lon="0.513108">
        <ele>1382.5</ele>
        <time>2012-12-19T09:06:52Z</time>
      </trkpt>
      <trkpt lat="42.849035" lon="0.513011">
        <ele>1385.9</ele>
        <time>2012-12-19T09:07:09Z</time>
      </trkpt>
      <trkpt lat="42.848960" lon="0.512910">
        <ele>1387.8</ele>
        <time>2012-12-19T09:07:24Z</time>
      </trkpt>
      <trkpt lat="42.848890" lon="0.512793">
        <ele>1390.2</ele>
        <time>2012-12-19T09:07:43Z</time>
      </trkpt>
      <trkpt lat="42.848801" lon="0.512695">
        <ele>1393.1</ele>
        <time>2012-12-19T09:08:01Z</time>
      </trkpt>
      <trkpt lat="42.848723" lon="0.512564">
        <ele>1395.0</ele>
        <time>2012-12-19T09:08:16Z</time>
      </trkpt>
      <trkpt lat="42.848654" lon="0.512462">
        <ele>1396.9</ele>
        <time>2012-12-19T09:08:31Z</time>
      </trkpt>
      <trkpt lat="42.848569" lon="0.512354">
        <ele>1398.9</ele>
        <time>2012-12-19T09:08:47Z</time>
      </trkpt>
      <trkpt lat="42.848481" lon="0.512262">
        <ele>1401.7</ele>
        <time>2012-12-19T09:09:03Z</time>
      </trkpt>
      <trkpt lat="42.848391" lon="0.512167">
        <ele>1403.7</ele>
        <time>2012-12-19T09:09:19Z</time>
      </trkpt>
      <trkpt lat="42.848359" lon="0.512049">
        <ele>1406.1</ele>
        <time>2012-12-19T09:09:34Z</time>
      </trkpt>
      <trkpt lat="42.848251" lon="0.511936">
        <ele>1408.0</ele>
        <time>2012-12-19T09:09:50Z</time>
      </trkpt>
      <trkpt lat="42.848205" lon="0.511857">
        <ele>1409.9</ele>
        <time>2012-12-19T09:10:05Z</time>
      </trkpt>
      <trkpt lat="42.848114" lon="0.511802">
        <ele>1412.3</ele>
        <time>2012-12-19T09:10:26Z</time>
      </trkpt>
      <trkpt lat="42.848062" lon="0.511710">
        <ele>1415.2</ele>
        <time>2012-12-19T09:10:42Z</time>
      </trkpt>
      <trkpt lat="42.847942" lon="0.511617">
        <ele>1418.1</ele>
        <time>2012-12-19T09:11:00Z</time>
      </trkpt>
      <trkpt lat="42.847873" lon="0.511506">
        <ele>1420.5</ele>
        <time>2012-12-19T09:11:17Z</time>
      </trkpt>
      <trkpt lat="42.847791" lon="0.511391">
        <ele>1421.4</ele>
        <time>2012-12-19T09:11:34Z</time>
      </trkpt>
      <trkpt lat="42.847733" lon="0.511260">
        <ele>1423.8</ele>
        <time>2012-12-19T09:11:51Z</time>
      </trkpt>
      <trkpt lat="42.847665" lon="0.511128">
        <ele>1426.2</ele>
        <time>2012-12-19T09:12:08Z</time>
      </trkpt>
      <trkpt lat="42.847549" lon="0.511025">
        <ele>1429.1</ele>
        <time>2012-12-19T09:12:25Z</time>
      </trkpt>
      <trkpt lat="42.847525" lon="0.510882">
        <ele>1431.5</ele>
        <time>2012-12-19T09:12:42Z</time>
      </trkpt>
      <trkpt lat="42.847466" lon="0.510734">
        <ele>1433.9</ele>
        <time>2012-12-19T09:13:03Z</time>
      </trkpt>
      <trkpt lat="42.847404" lon="0.510630">
        <ele>1436.3</ele>
        <time>2012-12-19T09:13:20Z</time>
      </trkpt>
      <trkpt lat="42.847287" lon="0.510517">
        <ele>1438.8</ele>
        <time>2012-12-19T09:13:36Z</time>
      </trkpt>
      <trkpt lat="42.847243" lon="0.510397">
        <ele>1441.6</ele>
        <time>2012-12-19T09:13:54Z</time>
      </trkpt>
      <trkpt lat="42.847247" lon="0.510243">
        <ele>1444.0</ele>
        <time>2012-12-19T09:14:14Z</time>
      </trkpt>
      <trkpt lat="42.847306" lon="0.510128">
        <ele>1446.4</ele>
        <time>2012-12-19T09:14:32Z</time>
      </trkpt>
      <trkpt lat="42.847293" lon="0.510012">
        <ele>1449.3</ele>
        <time>2012-12-19T09:14:49Z</time>
      </trkpt>
      <trkpt lat="42.847270" lon="0.509818">
        <ele>1453.2</ele>
        <time>2012-12-19T09:15:13Z</time>
      </trkpt>
      <trkpt lat="42.847265" lon="0.509659">
        <ele>1455.6</ele>
        <time>2012-12-19T09:15:35Z</time>
      </trkpt>
      <trkpt lat="42.847286" lon="0.509491">
        <ele>1458.9</ele>
        <time>2012-12-19T09:15:57Z</time>
      </trkpt>
      <trkpt lat="42.847273" lon="0.509337">
        <ele>1462.3</ele>
        <time>2012-12-19T09:16:22Z</time>
      </trkpt>
      <trkpt lat="42.847265" lon="0.509189">
        <ele>1465.7</ele>
        <time>2012-12-19T09:16:43Z</time>
      </trkpt>
      <trkpt lat="42.847260" lon="0.509056">
        <ele>1468.6</ele>
        <time>2012-12-19T09:17:07Z</time>
      </trkpt>
      <trkpt lat="42.847259" lon="0.508920">
        <ele>1471.4</ele>
        <time>2012-12-19T09:17:24Z</time>
      </trkpt>
      <trkpt lat="42.847270" lon="0.508805">
        <ele>1474.3</ele>
        <time>2012-12-19T09:17:42Z</time>
      </trkpt>
      <trkpt lat="42.847213" lon="0.508668">
        <ele>1477.2</ele>
        <time>2012-12-19T09:18:06Z</time>
      </trkpt>
      <trkpt lat="42.847241" lon="0.508519">
        <ele>1480.1</ele>
        <time>2012-12-19T09:18:27Z</time>
      </trkpt>
      <trkpt lat="42.847256" lon="0.508385">
        <ele>1482.5</ele>
        <time>2012-12-19T09:18:46Z</time>
      </trkpt>
      <trkpt lat="42.847215" lon="0.508246">
        <ele>1485.4</ele>
        <time>2012-12-19T09:19:07Z</time>
      </trkpt>
      <trkpt lat="42.847203" lon="0.508131">
        <ele>1487.8</ele>
        <time>2012-12-19T09:19:28Z</time>
      </trkpt>
      <trkpt lat="42.847251" lon="0.507954">
        <ele>1490.7</ele>
        <time>2012-12-19T09:19:48Z</time>
      </trkpt>
      <trkpt lat="42.847265" lon="0.507811">
        <ele>1492.6</ele>
        <time>2012-12-19T09:20:05Z</time>
      </trkpt>
      <trkpt lat="42.847232" lon="0.507666">
        <ele>1495.9</ele>
        <time>2012-12-19T09:20:28Z</time>
      </trkpt>
      <trkpt lat="42.847236" lon="0.507516">
        <ele>1499.8</ele>
        <time>2012-12-19T09:20:50Z</time>
      </trkpt>
      <trkpt lat="42.847233" lon="0.507408">
        <ele>1503.2</ele>
        <time>2012-12-19T09:21:10Z</time>
      </trkpt>
      <trkpt lat="42.847180" lon="0.507271">
        <ele>1507.0</ele>
        <time>2012-12-19T09:21:36Z</time>
      </trkpt>
      <trkpt lat="42.847165" lon="0.507128">
        <ele>1510.4</ele>
        <time>2012-12-19T09:22:01Z</time>
      </trkpt>
      <trkpt lat="42.847111" lon="0.507020">
        <ele>1513.2</ele>
        <time>2012-12-19T09:22:22Z</time>
      </trkpt>
      <trkpt lat="42.847086" lon="0.506934">
        <ele>1516.6</ele>
        <time>2012-12-19T09:22:48Z</time>
      </trkpt>
      <trkpt lat="42.847068" lon="0.506811">
        <ele>1520.0</ele>
        <time>2012-12-19T09:23:12Z</time>
      </trkpt>
      <trkpt lat="42.847030" lon="0.506689">
        <ele>1524.3</ele>
        <time>2012-12-19T09:23:36Z</time>
      </trkpt>
      <trkpt lat="42.846994" lon="0.506572">
        <ele>1527.7</ele>
        <time>2012-12-19T09:24:02Z</time>
      </trkpt>
      <trkpt lat="42.846974" lon="0.506459">
        <ele>1530.6</ele>
        <time>2012-12-19T09:24:23Z</time>
      </trkpt>
      <trkpt lat="42.846955" lon="0.506365">
        <ele>1532.0</ele>
        <time>2012-12-19T09:24:45Z</time>
      </trkpt>
      <trkpt lat="42.846964" lon="0.506189">
        <ele>1534.4</ele>
        <time>2012-12-19T09:25:10Z</time>
      </trkpt>
      <trkpt lat="42.847019" lon="0.506063">
        <ele>1535.8</ele>
        <time>2012-12-19T09:25:27Z</time>
      </trkpt>
      <trkpt lat="42.847027" lon="0.505926">
        <ele>1537.8</ele>
        <time>2012-12-19T09:25:42Z</time>
      </trkpt>
      <trkpt lat="42.847030" lon="0.505777">
        <ele>1539.2</ele>
        <time>2012-12-19T09:25:58Z</time>
      </trkpt>
      <trkpt lat="42.847010" lon="0.505639">
        <ele>1539.7</ele>
        <time>2012-12-19T09:26:14Z</time>
      </trkpt>
      <trkpt lat="42.846943" lon="0.505534">
        <ele>1541.1</ele>
        <time>2012-12-19T09:26:33Z</time>
      </trkpt>
      <trkpt lat="42.846861" lon="0.505427">
        <ele>1542.6</ele>
        <time>2012-12-19T09:26:50Z</time>
      </trkpt>
      <trkpt lat="42.846787" lon="0.505343">
        <ele>1544.5</ele>
        <time>2012-12-19T09:27:09Z</time>
      </trkpt>
      <trkpt lat="42.846694" lon="0.505231">
        <ele>1546.9</ele>
        <time>2012-12-19T09:27:30Z</time>
      </trkpt>
      <trkpt lat="42.846628" lon="0.505120">
        <ele>1549.3</ele>
        <time>2012-12-19T09:27:53Z</time>
      </trkpt>
      <trkpt lat="42.846551" lon="0.504991">
        <ele>1551.2</ele>
        <time>2012-12-19T09:28:15Z</time>
      </trkpt>
      <trkpt lat="42.846443" lon="0.504896">
        <ele>1552.2</ele>
        <time>2012-12-19T09:28:31Z</time>
      </trkpt>
      <trkpt lat="42.846380" lon="0.504797">
        <ele>1553.2</ele>
        <time>2012-12-19T09:28:47Z</time>
      </trkpt>
      <trkpt lat="42.846438" lon="0.504683">
        <ele>1554.6</ele>
        <time>2012-12-19T09:31:58Z</time>
      </trkpt>
      <trkpt lat="42.846355" lon="0.504663">
        <ele>1555.1</ele>
        <time>2012-12-19T09:34:41Z</time>
      </trkpt>
      <trkpt lat="42.846371" lon="0.504727">
        <ele>1552.7</ele>
        <time>2012-12-19T09:36:19Z</time>
      </trkpt>
      <trkpt lat="42.846292" lon="0.504682">
        <ele>1554.6</ele>
        <time>2012-12-19T09:40:06Z</time>
      </trkpt>
      <trkpt lat="42.846273" lon="0.504639">
        <ele>1557.0</ele>
        <time>2012-12-19T09:40:28Z</time>
      </trkpt>
      <trkpt lat="42.846217" lon="0.504554">
        <ele>1559.4</ele>
        <time>2012-12-19T09:40:46Z</time>
      </trkpt>
      <trkpt lat="42.846161" lon="0.504459">
        <ele>1560.4</ele>
        <time>2012-12-19T09:41:02Z</time>
      </trkpt>
      <trkpt lat="42.846118" lon="0.504357">
        <ele>1562.3</ele>
        <time>2012-12-19T09:41:18Z</time>
      </trkpt>
      <trkpt lat="42.846056" lon="0.504266">
        <ele>1565.6</ele>
        <time>2012-12-19T09:41:40Z</time>
      </trkpt>
      <trkpt lat="42.846037" lon="0.504188">
        <ele>1567.6</ele>
        <time>2012-12-19T09:42:01Z</time>
      </trkpt>
      <trkpt lat="42.845924" lon="0.504103">
        <ele>1569.0</ele>
        <time>2012-12-19T09:42:20Z</time>
      </trkpt>
      <trkpt lat="42.845883" lon="0.504004">
        <ele>1571.9</ele>
        <time>2012-12-19T09:42:39Z</time>
      </trkpt>
      <trkpt lat="42.845778" lon="0.503944">
        <ele>1574.3</ele>
        <time>2012-12-19T09:43:00Z</time>
      </trkpt>
      <trkpt lat="42.845704" lon="0.503834">
        <ele>1578.1</ele>
        <time>2012-12-19T09:43:27Z</time>
      </trkpt>
      <trkpt lat="42.845641" lon="0.503751">
        <ele>1579.6</ele>
        <time>2012-12-19T09:44:14Z</time>
      </trkpt>
      <trkpt lat="42.845566" lon="0.503656">
        <ele>1583.9</ele>
        <time>2012-12-19T09:44:35Z</time>
      </trkpt>
      <trkpt lat="42.845522" lon="0.503556">
        <ele>1587.8</ele>
        <time>2012-12-19T09:45:02Z</time>
      </trkpt>
      <trkpt lat="42.845487" lon="0.503433">
        <ele>1590.6</ele>
        <time>2012-12-19T09:45:24Z</time>
      </trkpt>
      <trkpt lat="42.845412" lon="0.503279">
        <ele>1592.1</ele>
        <time>2012-12-19T09:45:52Z</time>
      </trkpt>
      <trkpt lat="42.845410" lon="0.503292">
        <ele>1595.4</ele>
        <time>2012-12-19T09:46:17Z</time>
      </trkpt>
      <trkpt lat="42.845280" lon="0.503205">
        <ele>1599.3</ele>
        <time>2012-12-19T09:46:51Z</time>
      </trkpt>
      <trkpt lat="42.845160" lon="0.503234">
        <ele>1606.0</ele>
        <time>2012-12-19T09:47:39Z</time>
      </trkpt>
      <trkpt lat="42.844975" lon="0.503251">
        <ele>1611.3</ele>
        <time>2012-12-19T09:48:26Z</time>
      </trkpt>
      <trkpt lat="42.844898" lon="0.503170">
        <ele>1613.2</ele>
        <time>2012-12-19T09:49:13Z</time>
      </trkpt>
      <trkpt lat="42.844800" lon="0.503290">
        <ele>1617.1</ele>
        <time>2012-12-19T09:49:35Z</time>
      </trkpt>
      <trkpt lat="42.844718" lon="0.503368">
        <ele>1620.4</ele>
        <time>2012-12-19T09:49:55Z</time>
      </trkpt>
      <trkpt lat="42.844623" lon="0.503409">
        <ele>1624.3</ele>
        <time>2012-12-19T09:50:18Z</time>
      </trkpt>
      <trkpt lat="42.844590" lon="0.503261">
        <ele>1627.7</ele>
        <time>2012-12-19T09:50:37Z</time>
      </trkpt>
      <trkpt lat="42.844497" lon="0.503321">
        <ele>1629.1</ele>
        <time>2012-12-19T09:50:57Z</time>
      </trkpt>
      <trkpt lat="42.844399" lon="0.503378">
        <ele>1632.9</ele>
        <time>2012-12-19T09:51:20Z</time>
      </trkpt>
      <trkpt lat="42.844271" lon="0.503456">
        <ele>1635.3</ele>
        <time>2012-12-19T09:51:42Z</time>
      </trkpt>
      <trkpt lat="42.844189" lon="0.503372">
        <ele>1637.7</ele>
        <time>2012-12-19T09:52:02Z</time>
      </trkpt>
      <trkpt lat="42.844131" lon="0.503339">
        <ele>1641.1</ele>
        <time>2012-12-19T09:52:23Z</time>
      </trkpt>
      <trkpt lat="42.844083" lon="0.503394">
        <ele>1643.0</ele>
        <time>2012-12-19T09:52:46Z</time>
      </trkpt>
      <trkpt lat="42.843984" lon="0.503405">
        <ele>1645.4</ele>
        <time>2012-12-19T09:53:04Z</time>
      </trkpt>
      <trkpt lat="42.843947" lon="0.503344">
        <ele>1647.8</ele>
        <time>2012-12-19T09:53:30Z</time>
      </trkpt>
      <trkpt lat="42.843870" lon="0.503376">
        <ele>1648.8</ele>
        <time>2012-12-19T09:54:08Z</time>
      </trkpt>
      <trkpt lat="42.843844" lon="0.503386">
        <ele>1649.3</ele>
        <time>2012-12-19T09:56:12Z</time>
      </trkpt>
      <trkpt lat="42.843798" lon="0.503462">
        <ele>1650.7</ele>
        <time>2012-12-19T09:58:06Z</time>
      </trkpt>
      <trkpt lat="42.843764" lon="0.503526">
        <ele>1651.2</ele>
        <time>2012-12-19T09:59:02Z</time>
        <name>Cabane de Cires</name>
      </trkpt>
      <trkpt lat="42.843785" lon="0.503661">
        <ele>1651.2</ele>
        <time>2012-12-19T09:59:21Z</time>
      </trkpt>
      <trkpt lat="42.843687" lon="0.503733">
        <ele>1653.1</ele>
        <time>2012-12-19T09:59:42Z</time>
      </trkpt>
      <trkpt lat="42.843612" lon="0.503819">
        <ele>1655.5</ele>
        <time>2012-12-19T10:00:10Z</time>
      </trkpt>
      <trkpt lat="42.843556" lon="0.503917">
        <ele>1658.4</ele>
        <time>2012-12-19T10:00:24Z</time>
      </trkpt>
      <trkpt lat="42.843496" lon="0.503985">
        <ele>1661.8</ele>
        <time>2012-12-19T10:00:40Z</time>
      </trkpt>
      <trkpt lat="42.843491" lon="0.504111">
        <ele>1664.2</ele>
        <time>2012-12-19T10:00:55Z</time>
      </trkpt>
      <trkpt lat="42.843431" lon="0.504212">
        <ele>1666.1</ele>
        <time>2012-12-19T10:01:10Z</time>
      </trkpt>
      <trkpt lat="42.843373" lon="0.504314">
        <ele>1668.0</ele>
        <time>2012-12-19T10:01:58Z</time>
      </trkpt>
      <trkpt lat="42.843310" lon="0.504403">
        <ele>1669.0</ele>
        <time>2012-12-19T10:02:10Z</time>
      </trkpt>
      <trkpt lat="42.843241" lon="0.504495">
        <ele>1669.5</ele>
        <time>2012-12-19T10:02:20Z</time>
      </trkpt>
      <trkpt lat="42.843222" lon="0.504615">
        <ele>1671.9</ele>
        <time>2012-12-19T10:02:35Z</time>
      </trkpt>
      <trkpt lat="42.843142" lon="0.504691">
        <ele>1673.8</ele>
        <time>2012-12-19T10:02:50Z</time>
      </trkpt>
      <trkpt lat="42.843155" lon="0.504816">
        <ele>1676.7</ele>
        <time>2012-12-19T10:03:08Z</time>
      </trkpt>
      <trkpt lat="42.843059" lon="0.504849">
        <ele>1678.6</ele>
        <time>2012-12-19T10:03:34Z</time>
      </trkpt>
      <trkpt lat="42.843012" lon="0.504907">
        <ele>1682.9</ele>
        <time>2012-12-19T10:03:55Z</time>
      </trkpt>
      <trkpt lat="42.842934" lon="0.504989">
        <ele>1686.8</ele>
        <time>2012-12-19T10:04:17Z</time>
      </trkpt>
      <trkpt lat="42.842953" lon="0.505085">
        <ele>1691.6</ele>
        <time>2012-12-19T10:04:39Z</time>
      </trkpt>
      <trkpt lat="42.843012" lon="0.505186">
        <ele>1694.9</ele>
        <time>2012-12-19T10:05:02Z</time>
      </trkpt>
      <trkpt lat="42.843073" lon="0.505282">
        <ele>1697.8</ele>
        <time>2012-12-19T10:05:23Z</time>
      </trkpt>
      <trkpt lat="42.843002" lon="0.505373">
        <ele>1701.2</ele>
        <time>2012-12-19T10:05:44Z</time>
      </trkpt>
      <trkpt lat="42.842915" lon="0.505454">
        <ele>1705.0</ele>
        <time>2012-12-19T10:06:06Z</time>
      </trkpt>
      <trkpt lat="42.842822" lon="0.505490">
        <ele>1707.9</ele>
        <time>2012-12-19T10:06:26Z</time>
      </trkpt>
      <trkpt lat="42.842741" lon="0.505514">
        <ele>1711.8</ele>
        <time>2012-12-19T10:06:47Z</time>
      </trkpt>
      <trkpt lat="42.842775" lon="0.505613">
        <ele>1715.1</ele>
        <time>2012-12-19T10:07:07Z</time>
      </trkpt>
      <trkpt lat="42.842829" lon="0.505710">
        <ele>1717.5</ele>
        <time>2012-12-19T10:07:23Z</time>
      </trkpt>
      <trkpt lat="42.842926" lon="0.505815">
        <ele>1721.4</ele>
        <time>2012-12-19T10:07:45Z</time>
      </trkpt>
      <trkpt lat="42.842863" lon="0.505884">
        <ele>1723.8</ele>
        <time>2012-12-19T10:08:01Z</time>
      </trkpt>
      <trkpt lat="42.842775" lon="0.505933">
        <ele>1726.7</ele>
        <time>2012-12-19T10:08:22Z</time>
      </trkpt>
      <trkpt lat="42.842766" lon="0.506010">
        <ele>1729.6</ele>
        <time>2012-12-19T10:08:48Z</time>
      </trkpt>
      <trkpt lat="42.842811" lon="0.506117">
        <ele>1732.9</ele>
        <time>2012-12-19T10:09:09Z</time>
      </trkpt>
      <trkpt lat="42.842874" lon="0.506223">
        <ele>1736.3</ele>
        <time>2012-12-19T10:09:29Z</time>
      </trkpt>
      <trkpt lat="42.842933" lon="0.506315">
        <ele>1738.2</ele>
        <time>2012-12-19T10:09:46Z</time>
      </trkpt>
      <trkpt lat="42.842946" lon="0.506420">
        <ele>1741.1</ele>
        <time>2012-12-19T10:10:04Z</time>
      </trkpt>
      <trkpt lat="42.842912" lon="0.506527">
        <ele>1743.0</ele>
        <time>2012-12-19T10:10:17Z</time>
      </trkpt>
      <trkpt lat="42.842885" lon="0.506629">
        <ele>1746.4</ele>
        <time>2012-12-19T10:10:37Z</time>
      </trkpt>
      <trkpt lat="42.842952" lon="0.506697">
        <ele>1748.3</ele>
        <time>2012-12-19T10:10:56Z</time>
      </trkpt>
      <trkpt lat="42.843016" lon="0.506777">
        <ele>1749.3</ele>
        <time>2012-12-19T10:11:27Z</time>
      </trkpt>
      <trkpt lat="42.843061" lon="0.506859">
        <ele>1750.7</ele>
        <time>2012-12-19T10:11:41Z</time>
      </trkpt>
      <trkpt lat="42.843120" lon="0.506944">
        <ele>1750.7</ele>
        <time>2012-12-19T10:11:59Z</time>
      </trkpt>
      <trkpt lat="42.843155" lon="0.507014">
        <ele>1750.7</ele>
        <time>2012-12-19T10:17:24Z</time>
      </trkpt>
      <trkpt lat="42.843106" lon="0.506976">
        <ele>1751.2</ele>
        <time>2012-12-19T10:18:14Z</time>
      </trkpt>
      <trkpt lat="42.843102" lon="0.506996">
        <ele>1751.7</ele>
        <time>2012-12-19T10:20:38Z</time>
      </trkpt>
      <trkpt lat="42.843025" lon="0.507042">
        <ele>1751.7</ele>
        <time>2012-12-19T10:21:06Z</time>
      </trkpt>
      <trkpt lat="42.842950" lon="0.507063">
        <ele>1752.6</ele>
        <time>2012-12-19T10:21:36Z</time>
      </trkpt>
      <trkpt lat="42.842864" lon="0.507118">
        <ele>1754.1</ele>
        <time>2012-12-19T10:21:52Z</time>
      </trkpt>
      <trkpt lat="42.842796" lon="0.507160">
        <ele>1755.5</ele>
        <time>2012-12-19T10:24:02Z</time>
      </trkpt>
      <trkpt lat="42.842702" lon="0.507181">
        <ele>1756.5</ele>
        <time>2012-12-19T10:24:19Z</time>
      </trkpt>
      <trkpt lat="42.842608" lon="0.507213">
        <ele>1758.9</ele>
        <time>2012-12-19T10:24:40Z</time>
      </trkpt>
      <trkpt lat="42.842501" lon="0.507230">
        <ele>1761.3</ele>
        <time>2012-12-19T10:24:59Z</time>
      </trkpt>
      <trkpt lat="42.842403" lon="0.507242">
        <ele>1763.2</ele>
        <time>2012-12-19T10:25:39Z</time>
      </trkpt>
      <trkpt lat="42.842308" lon="0.507234">
        <ele>1766.6</ele>
        <time>2012-12-19T10:26:00Z</time>
      </trkpt>
      <trkpt lat="42.842221" lon="0.507201">
        <ele>1769.4</ele>
        <time>2012-12-19T10:26:28Z</time>
      </trkpt>
      <trkpt lat="42.842144" lon="0.507160">
        <ele>1772.3</ele>
        <time>2012-12-19T10:26:56Z</time>
      </trkpt>
      <trkpt lat="42.842076" lon="0.507092">
        <ele>1774.7</ele>
        <time>2012-12-19T10:27:15Z</time>
      </trkpt>
      <trkpt lat="42.842001" lon="0.507039">
        <ele>1777.6</ele>
        <time>2012-12-19T10:27:37Z</time>
      </trkpt>
      <trkpt lat="42.841938" lon="0.506948">
        <ele>1779.5</ele>
        <time>2012-12-19T10:27:54Z</time>
      </trkpt>
      <trkpt lat="42.841849" lon="0.506945">
        <ele>1783.4</ele>
        <time>2012-12-19T10:28:13Z</time>
      </trkpt>
      <trkpt lat="42.841772" lon="0.506980">
        <ele>1785.3</ele>
        <time>2012-12-19T10:28:30Z</time>
      </trkpt>
      <trkpt lat="42.841698" lon="0.506929">
        <ele>1787.2</ele>
        <time>2012-12-19T10:28:47Z</time>
      </trkpt>
      <trkpt lat="42.841621" lon="0.506873">
        <ele>1788.7</ele>
        <time>2012-12-19T10:29:02Z</time>
      </trkpt>
      <trkpt lat="42.841548" lon="0.506888">
        <ele>1791.6</ele>
        <time>2012-12-19T10:29:19Z</time>
      </trkpt>
      <trkpt lat="42.841461" lon="0.506881">
        <ele>1793.0</ele>
        <time>2012-12-19T10:29:37Z</time>
      </trkpt>
      <trkpt lat="42.841371" lon="0.506841">
        <ele>1794.9</ele>
        <time>2012-12-19T10:29:57Z</time>
      </trkpt>
      <trkpt lat="42.841277" lon="0.506830">
        <ele>1796.8</ele>
        <time>2012-12-19T10:30:13Z</time>
      </trkpt>
      <trkpt lat="42.841217" lon="0.506840">
        <ele>1798.8</ele>
        <time>2012-12-19T10:30:28Z</time>
      </trkpt>
      <trkpt lat="42.841125" lon="0.506811">
        <ele>1801.2</ele>
        <time>2012-12-19T10:30:43Z</time>
      </trkpt>
      <trkpt lat="42.841034" lon="0.506781">
        <ele>1802.6</ele>
        <time>2012-12-19T10:30:57Z</time>
      </trkpt>
      <trkpt lat="42.840944" lon="0.506741">
        <ele>1804.1</ele>
        <time>2012-12-19T10:31:11Z</time>
      </trkpt>
      <trkpt lat="42.840866" lon="0.506713">
        <ele>1804.5</ele>
        <time>2012-12-19T10:31:25Z</time>
      </trkpt>
      <trkpt lat="42.840767" lon="0.506689">
        <ele>1805.0</ele>
        <time>2012-12-19T10:31:37Z</time>
      </trkpt>
      <trkpt lat="42.840695" lon="0.506672">
        <ele>1805.0</ele>
        <time>2012-12-19T10:31:49Z</time>
      </trkpt>
      <trkpt lat="42.840602" lon="0.506654">
        <ele>1805.0</ele>
        <time>2012-12-19T10:32:01Z</time>
      </trkpt>
      <trkpt lat="42.840522" lon="0.506627">
        <ele>1805.0</ele>
        <time>2012-12-19T10:32:14Z</time>
      </trkpt>
      <trkpt lat="42.840442" lon="0.506592">
        <ele>1805.0</ele>
        <time>2012-12-19T10:32:27Z</time>
      </trkpt>
      <trkpt lat="42.840381" lon="0.506522">
        <ele>1805.0</ele>
        <time>2012-12-19T10:33:33Z</time>
      </trkpt>
      <trkpt lat="42.840369" lon="0.506525">
        <ele>1805.0</ele>
        <time>2012-12-19T10:35:36Z</time>
      </trkpt>
      <trkpt lat="42.840290" lon="0.506443">
        <ele>1804.5</ele>
        <time>2012-12-19T10:35:49Z</time>
      </trkpt>
      <trkpt lat="42.840216" lon="0.506355">
        <ele>1805.0</ele>
        <time>2012-12-19T10:35:59Z</time>
      </trkpt>
      <trkpt lat="42.840130" lon="0.506284">
        <ele>1806.0</ele>
        <time>2012-12-19T10:36:11Z</time>
      </trkpt>
      <trkpt lat="42.840050" lon="0.506212">
        <ele>1807.9</ele>
        <time>2012-12-19T10:36:24Z</time>
      </trkpt>
      <trkpt lat="42.839975" lon="0.506140">
        <ele>1808.9</ele>
        <time>2012-12-19T10:36:37Z</time>
      </trkpt>
      <trkpt lat="42.839930" lon="0.506024">
        <ele>1811.3</ele>
        <time>2012-12-19T10:36:56Z</time>
      </trkpt>
      <trkpt lat="42.839862" lon="0.505954">
        <ele>1813.2</ele>
        <time>2012-12-19T10:37:12Z</time>
      </trkpt>
      <trkpt lat="42.839810" lon="0.505888">
        <ele>1816.6</ele>
        <time>2012-12-19T10:37:31Z</time>
      </trkpt>
      <trkpt lat="42.839822" lon="0.505758">
        <ele>1819.4</ele>
        <time>2012-12-19T10:37:49Z</time>
      </trkpt>
      <trkpt lat="42.839725" lon="0.505800">
        <ele>1820.9</ele>
        <time>2012-12-19T10:38:07Z</time>
      </trkpt>
      <trkpt lat="42.839649" lon="0.505744">
        <ele>1822.8</ele>
        <time>2012-12-19T10:38:25Z</time>
      </trkpt>
      <trkpt lat="42.839645" lon="0.505636">
        <ele>1826.2</ele>
        <time>2012-12-19T10:38:45Z</time>
      </trkpt>
      <trkpt lat="42.839548" lon="0.505648">
        <ele>1828.6</ele>
        <time>2012-12-19T10:39:05Z</time>
      </trkpt>
      <trkpt lat="42.839525" lon="0.505544">
        <ele>1832.4</ele>
        <time>2012-12-19T10:39:34Z</time>
      </trkpt>
      <trkpt lat="42.839493" lon="0.505484">
        <ele>1834.8</ele>
        <time>2012-12-19T10:39:51Z</time>
      </trkpt>
      <trkpt lat="42.839385" lon="0.505480">
        <ele>1837.7</ele>
        <time>2012-12-19T10:40:09Z</time>
      </trkpt>
      <trkpt lat="42.839307" lon="0.505452">
        <ele>1841.1</ele>
        <time>2012-12-19T10:40:29Z</time>
      </trkpt>
      <trkpt lat="42.839278" lon="0.505335">
        <ele>1845.4</ele>
        <time>2012-12-19T10:40:49Z</time>
      </trkpt>
      <trkpt lat="42.839268" lon="0.505230">
        <ele>1847.8</ele>
        <time>2012-12-19T10:41:08Z</time>
      </trkpt>
      <trkpt lat="42.839234" lon="0.505165">
        <ele>1850.7</ele>
        <time>2012-12-19T10:41:27Z</time>
      </trkpt>
      <trkpt lat="42.839145" lon="0.505139">
        <ele>1854.0</ele>
        <time>2012-12-19T10:41:43Z</time>
      </trkpt>
      <trkpt lat="42.839082" lon="0.505080">
        <ele>1856.4</ele>
        <time>2012-12-19T10:42:00Z</time>
      </trkpt>
      <trkpt lat="42.839039" lon="0.504988">
        <ele>1859.8</ele>
        <time>2012-12-19T10:42:16Z</time>
      </trkpt>
      <trkpt lat="42.839016" lon="0.504868">
        <ele>1862.2</ele>
        <time>2012-12-19T10:42:32Z</time>
      </trkpt>
      <trkpt lat="42.838956" lon="0.504805">
        <ele>1865.1</ele>
        <time>2012-12-19T10:42:53Z</time>
      </trkpt>
      <trkpt lat="42.838875" lon="0.504802">
        <ele>1867.5</ele>
        <time>2012-12-19T10:43:16Z</time>
      </trkpt>
      <trkpt lat="42.838793" lon="0.504761">
        <ele>1870.9</ele>
        <time>2012-12-19T10:43:34Z</time>
      </trkpt>
      <trkpt lat="42.838707" lon="0.504765">
        <ele>1873.8</ele>
        <time>2012-12-19T10:43:50Z</time>
      </trkpt>
      <trkpt lat="42.838652" lon="0.504688">
        <ele>1876.6</ele>
        <time>2012-12-19T10:44:51Z</time>
      </trkpt>
      <trkpt lat="42.838574" lon="0.504710">
        <ele>1878.6</ele>
        <time>2012-12-19T10:45:04Z</time>
      </trkpt>
      <trkpt lat="42.838496" lon="0.504667">
        <ele>1881.4</ele>
        <time>2012-12-19T10:45:18Z</time>
      </trkpt>
      <trkpt lat="42.838411" lon="0.504626">
        <ele>1883.8</ele>
        <time>2012-12-19T10:45:34Z</time>
      </trkpt>
      <trkpt lat="42.838342" lon="0.504539">
        <ele>1885.8</ele>
        <time>2012-12-19T10:46:24Z</time>
      </trkpt>
      <trkpt lat="42.838248" lon="0.504531">
        <ele>1888.2</ele>
        <time>2012-12-19T10:46:42Z</time>
      </trkpt>
      <trkpt lat="42.838154" lon="0.504515">
        <ele>1891.5</ele>
        <time>2012-12-19T10:46:58Z</time>
      </trkpt>
      <trkpt lat="42.838066" lon="0.504478">
        <ele>1893.9</ele>
        <time>2012-12-19T10:47:13Z</time>
      </trkpt>
      <trkpt lat="42.838001" lon="0.504496">
        <ele>1896.3</ele>
        <time>2012-12-19T10:47:30Z</time>
      </trkpt>
      <trkpt lat="42.837953" lon="0.504456">
        <ele>1897.8</ele>
        <time>2012-12-19T10:47:55Z</time>
      </trkpt>
      <trkpt lat="42.837865" lon="0.504417">
        <ele>1899.7</ele>
        <time>2012-12-19T10:48:12Z</time>
      </trkpt>
      <trkpt lat="42.837771" lon="0.504407">
        <ele>1902.1</ele>
        <time>2012-12-19T10:48:28Z</time>
      </trkpt>
      <trkpt lat="42.837677" lon="0.504385">
        <ele>1903.6</ele>
        <time>2012-12-19T10:48:44Z</time>
      </trkpt>
      <trkpt lat="42.837581" lon="0.504359">
        <ele>1906.4</ele>
        <time>2012-12-19T10:49:00Z</time>
      </trkpt>
      <trkpt lat="42.837493" lon="0.504339">
        <ele>1908.3</ele>
        <time>2012-12-19T10:49:15Z</time>
      </trkpt>
      <trkpt lat="42.837405" lon="0.504322">
        <ele>1910.3</ele>
        <time>2012-12-19T10:49:41Z</time>
      </trkpt>
      <trkpt lat="42.837317" lon="0.504323">
        <ele>1911.7</ele>
        <time>2012-12-19T10:49:54Z</time>
      </trkpt>
      <trkpt lat="42.837227" lon="0.504294">
        <ele>1912.7</ele>
        <time>2012-12-19T10:50:09Z</time>
      </trkpt>
      <trkpt lat="42.837137" lon="0.504271">
        <ele>1915.1</ele>
        <time>2012-12-19T10:50:23Z</time>
      </trkpt>
      <trkpt lat="42.837050" lon="0.504226">
        <ele>1916.5</ele>
        <time>2012-12-19T10:50:39Z</time>
      </trkpt>
      <trkpt lat="42.836958" lon="0.504210">
        <ele>1918.0</ele>
        <time>2012-12-19T10:50:53Z</time>
      </trkpt>
      <trkpt lat="42.836862" lon="0.504179">
        <ele>1919.4</ele>
        <time>2012-12-19T10:51:07Z</time>
      </trkpt>
      <trkpt lat="42.836767" lon="0.504164">
        <ele>1920.4</ele>
        <time>2012-12-19T10:51:20Z</time>
      </trkpt>
      <trkpt lat="42.836679" lon="0.504144">
        <ele>1921.8</ele>
        <time>2012-12-19T10:51:36Z</time>
      </trkpt>
      <trkpt lat="42.836589" lon="0.504119">
        <ele>1922.3</ele>
        <time>2012-12-19T10:51:56Z</time>
      </trkpt>
      <trkpt lat="42.836493" lon="0.504125">
        <ele>1922.3</ele>
        <time>2012-12-19T10:52:07Z</time>
      </trkpt>
      <trkpt lat="42.836402" lon="0.504117">
        <ele>1922.8</ele>
        <time>2012-12-19T10:52:33Z</time>
      </trkpt>
      <trkpt lat="42.836304" lon="0.504147">
        <ele>1922.8</ele>
        <time>2012-12-19T10:52:44Z</time>
      </trkpt>
      <trkpt lat="42.836220" lon="0.504159">
        <ele>1923.2</ele>
        <time>2012-12-19T10:53:08Z</time>
      </trkpt>
      <trkpt lat="42.836124" lon="0.504152">
        <ele>1922.8</ele>
        <time>2012-12-19T10:53:20Z</time>
      </trkpt>
      <trkpt lat="42.836042" lon="0.504106">
        <ele>1923.2</ele>
        <time>2012-12-19T10:53:41Z</time>
        <name>Honteyde</name>
      </trkpt>
      <trkpt lat="42.836054" lon="0.504093">
        <ele>1922.8</ele>
        <time>2012-12-19T10:54:19Z</time>
      </trkpt>
      <trkpt lat="42.836122" lon="0.504090">
        <ele>1923.2</ele>
        <time>2012-12-19T10:55:10Z</time>
      </trkpt>
      <trkpt lat="42.836097" lon="0.504125">
        <ele>1922.8</ele>
        <time>2012-12-19T10:57:41Z</time>
      </trkpt>
      <trkpt lat="42.836091" lon="0.504088">
        <ele>1922.8</ele>
        <time>2012-12-19T11:01:18Z</time>
      </trkpt>
      <trkpt lat="42.836140" lon="0.504057">
        <ele>1923.2</ele>
        <time>2012-12-19T11:03:26Z</time>
      </trkpt>
      <trkpt lat="42.836173" lon="0.503965">
        <ele>1922.3</ele>
        <time>2012-12-19T11:03:40Z</time>
      </trkpt>
      <trkpt lat="42.836189" lon="0.503878">
        <ele>1922.3</ele>
        <time>2012-12-19T11:03:53Z</time>
      </trkpt>
      <trkpt lat="42.836212" lon="0.503752">
        <ele>1921.8</ele>
        <time>2012-12-19T11:04:04Z</time>
      </trkpt>
      <trkpt lat="42.836224" lon="0.503625">
        <ele>1920.8</ele>
        <time>2012-12-19T11:04:14Z</time>
      </trkpt>
      <trkpt lat="42.836244" lon="0.503513">
        <ele>1920.4</ele>
        <time>2012-12-19T11:04:24Z</time>
      </trkpt>
      <trkpt lat="42.836274" lon="0.503409">
        <ele>1918.9</ele>
        <time>2012-12-19T11:05:12Z</time>
      </trkpt>
      <trkpt lat="42.836280" lon="0.503282">
        <ele>1918.4</ele>
        <time>2012-12-19T11:05:28Z</time>
      </trkpt>
      <trkpt lat="42.836282" lon="0.503146">
        <ele>1917.5</ele>
        <time>2012-12-19T11:06:08Z</time>
      </trkpt>
      <trkpt lat="42.836297" lon="0.503024">
        <ele>1917.0</ele>
        <time>2012-12-19T11:06:19Z</time>
      </trkpt>
      <trkpt lat="42.836298" lon="0.502890">
        <ele>1915.6</ele>
        <time>2012-12-19T11:06:29Z</time>
      </trkpt>
      <trkpt lat="42.836308" lon="0.502760">
        <ele>1915.1</ele>
        <time>2012-12-19T11:06:38Z</time>
      </trkpt>
      <trkpt lat="42.836321" lon="0.502629">
        <ele>1914.1</ele>
        <time>2012-12-19T11:06:47Z</time>
      </trkpt>
      <trkpt lat="42.836337" lon="0.502494">
        <ele>1912.7</ele>
        <time>2012-12-19T11:06:56Z</time>
      </trkpt>
      <trkpt lat="42.836368" lon="0.502370">
        <ele>1912.7</ele>
        <time>2012-12-19T11:07:05Z</time>
      </trkpt>
      <trkpt lat="42.836397" lon="0.502259">
        <ele>1911.2</ele>
        <time>2012-12-19T11:07:13Z</time>
      </trkpt>
      <trkpt lat="42.836428" lon="0.502136">
        <ele>1910.3</ele>
        <time>2012-12-19T11:07:22Z</time>
      </trkpt>
      <trkpt lat="42.836467" lon="0.502005">
        <ele>1908.8</ele>
        <time>2012-12-19T11:07:31Z</time>
      </trkpt>
      <trkpt lat="42.836491" lon="0.501883">
        <ele>1908.3</ele>
        <time>2012-12-19T11:07:39Z</time>
      </trkpt>
      <trkpt lat="42.836526" lon="0.501754">
        <ele>1906.9</ele>
        <time>2012-12-19T11:07:48Z</time>
      </trkpt>
      <trkpt lat="42.836548" lon="0.501642">
        <ele>1906.4</ele>
        <time>2012-12-19T11:07:56Z</time>
      </trkpt>
      <trkpt lat="42.836572" lon="0.501530">
        <ele>1905.9</ele>
        <time>2012-12-19T11:08:08Z</time>
      </trkpt>
      <trkpt lat="42.836593" lon="0.501404">
        <ele>1905.5</ele>
        <time>2012-12-19T11:08:21Z</time>
      </trkpt>
      <trkpt lat="42.836620" lon="0.501277">
        <ele>1905.0</ele>
        <time>2012-12-19T11:08:30Z</time>
      </trkpt>
      <trkpt lat="42.836642" lon="0.501164">
        <ele>1905.0</ele>
        <time>2012-12-19T11:08:39Z</time>
      </trkpt>
      <trkpt lat="42.836672" lon="0.501032">
        <ele>1904.0</ele>
        <time>2012-12-19T11:08:49Z</time>
      </trkpt>
      <trkpt lat="42.836688" lon="0.500908">
        <ele>1903.6</ele>
        <time>2012-12-19T11:08:58Z</time>
      </trkpt>
      <trkpt lat="42.836705" lon="0.500781">
        <ele>1903.1</ele>
        <time>2012-12-19T11:09:07Z</time>
      </trkpt>
      <trkpt lat="42.836730" lon="0.500662">
        <ele>1902.6</ele>
        <time>2012-12-19T11:09:17Z</time>
      </trkpt>
      <trkpt lat="42.836744" lon="0.500525">
        <ele>1901.1</ele>
        <time>2012-12-19T11:09:26Z</time>
      </trkpt>
      <trkpt lat="42.836759" lon="0.500386">
        <ele>1900.7</ele>
        <time>2012-12-19T11:09:35Z</time>
      </trkpt>
      <trkpt lat="42.836763" lon="0.500253">
        <ele>1899.7</ele>
        <time>2012-12-19T11:09:44Z</time>
      </trkpt>
      <trkpt lat="42.836764" lon="0.500116">
        <ele>1898.7</ele>
        <time>2012-12-19T11:09:53Z</time>
      </trkpt>
      <trkpt lat="42.836761" lon="0.499984">
        <ele>1898.7</ele>
        <time>2012-12-19T11:10:03Z</time>
      </trkpt>
      <trkpt lat="42.836760" lon="0.499855">
        <ele>1897.8</ele>
        <time>2012-12-19T11:10:12Z</time>
      </trkpt>
      <trkpt lat="42.836763" lon="0.499721">
        <ele>1898.3</ele>
        <time>2012-12-19T11:10:22Z</time>
      </trkpt>
      <trkpt lat="42.836781" lon="0.499602">
        <ele>1898.3</ele>
        <time>2012-12-19T11:10:31Z</time>
      </trkpt>
      <trkpt lat="42.836830" lon="0.499492">
        <ele>1898.3</ele>
        <time>2012-12-19T11:10:41Z</time>
      </trkpt>
      <trkpt lat="42.836883" lon="0.499382">
        <ele>1899.2</ele>
        <time>2012-12-19T11:10:52Z</time>
      </trkpt>
      <trkpt lat="42.836940" lon="0.499275">
        <ele>1900.2</ele>
        <time>2012-12-19T11:11:03Z</time>
      </trkpt>
      <trkpt lat="42.836992" lon="0.499177">
        <ele>1901.1</ele>
        <time>2012-12-19T11:11:13Z</time>
      </trkpt>
      <trkpt lat="42.837035" lon="0.499071">
        <ele>1902.1</ele>
        <time>2012-12-19T11:11:24Z</time>
      </trkpt>
      <trkpt lat="42.837080" lon="0.498963">
        <ele>1903.6</ele>
        <time>2012-12-19T11:11:36Z</time>
      </trkpt>
      <trkpt lat="42.837131" lon="0.498863">
        <ele>1905.0</ele>
        <time>2012-12-19T11:11:53Z</time>
      </trkpt>
      <trkpt lat="42.837198" lon="0.498785">
        <ele>1907.4</ele>
        <time>2012-12-19T11:12:12Z</time>
      </trkpt>
      <trkpt lat="42.837268" lon="0.498706">
        <ele>1908.8</ele>
        <time>2012-12-19T11:12:29Z</time>
      </trkpt>
      <trkpt lat="42.837357" lon="0.498646">
        <ele>1911.2</ele>
        <time>2012-12-19T11:12:43Z</time>
      </trkpt>
      <trkpt lat="42.837430" lon="0.498565">
        <ele>1913.2</ele>
        <time>2012-12-19T11:12:58Z</time>
      </trkpt>
      <trkpt lat="42.837513" lon="0.498512">
        <ele>1915.6</ele>
        <time>2012-12-19T11:13:12Z</time>
      </trkpt>
      <trkpt lat="42.837592" lon="0.498448">
        <ele>1917.0</ele>
        <time>2012-12-19T11:13:26Z</time>
      </trkpt>
      <trkpt lat="42.837680" lon="0.498436">
        <ele>1918.0</ele>
        <time>2012-12-19T11:14:07Z</time>
      </trkpt>
      <trkpt lat="42.837776" lon="0.498418">
        <ele>1919.4</ele>
        <time>2012-12-19T11:14:39Z</time>
      </trkpt>
      <trkpt lat="42.837843" lon="0.498331">
        <ele>1919.9</ele>
        <time>2012-12-19T11:18:11Z</time>
      </trkpt>
      <trkpt lat="42.837872" lon="0.498218">
        <ele>1920.4</ele>
        <time>2012-12-19T11:18:22Z</time>
      </trkpt>
      <trkpt lat="42.837904" lon="0.498090">
        <ele>1920.4</ele>
        <time>2012-12-19T11:18:33Z</time>
      </trkpt>
      <trkpt lat="42.837940" lon="0.497965">
        <ele>1920.8</ele>
        <time>2012-12-19T11:18:43Z</time>
      </trkpt>
      <trkpt lat="42.837972" lon="0.497837">
        <ele>1920.8</ele>
        <time>2012-12-19T11:18:52Z</time>
      </trkpt>
      <trkpt lat="42.837996" lon="0.497708">
        <ele>1920.8</ele>
        <time>2012-12-19T11:19:01Z</time>
      </trkpt>
      <trkpt lat="42.838042" lon="0.497591">
        <ele>1920.8</ele>
        <time>2012-12-19T11:19:10Z</time>
      </trkpt>
      <trkpt lat="42.838112" lon="0.497492">
        <ele>1920.4</ele>
        <time>2012-12-19T11:19:19Z</time>
      </trkpt>
      <trkpt lat="42.838189" lon="0.497398">
        <ele>1919.9</ele>
        <time>2012-12-19T11:19:29Z</time>
      </trkpt>
      <trkpt lat="42.838256" lon="0.497317">
        <ele>1919.4</ele>
        <time>2012-12-19T11:19:37Z</time>
      </trkpt>
      <trkpt lat="42.838339" lon="0.497223">
        <ele>1918.9</ele>
        <time>2012-12-19T11:19:46Z</time>
      </trkpt>
      <trkpt lat="42.838412" lon="0.497131">
        <ele>1919.4</ele>
        <time>2012-12-19T11:19:55Z</time>
      </trkpt>
      <trkpt lat="42.838479" lon="0.497031">
        <ele>1919.4</ele>
        <time>2012-12-19T11:20:05Z</time>
      </trkpt>
      <trkpt lat="42.838547" lon="0.496945">
        <ele>1919.4</ele>
        <time>2012-12-19T11:20:14Z</time>
      </trkpt>
      <trkpt lat="42.838632" lon="0.496865">
        <ele>1919.4</ele>
        <time>2012-12-19T11:20:24Z</time>
      </trkpt>
      <trkpt lat="42.838707" lon="0.496772">
        <ele>1918.9</ele>
        <time>2012-12-19T11:20:34Z</time>
      </trkpt>
      <trkpt lat="42.838780" lon="0.496675">
        <ele>1918.4</ele>
        <time>2012-12-19T11:20:43Z</time>
      </trkpt>
      <trkpt lat="42.838855" lon="0.496588">
        <ele>1918.4</ele>
        <time>2012-12-19T11:20:52Z</time>
      </trkpt>
      <trkpt lat="42.838943" lon="0.496517">
        <ele>1918.0</ele>
        <time>2012-12-19T11:21:01Z</time>
      </trkpt>
      <trkpt lat="42.839024" lon="0.496436">
        <ele>1918.0</ele>
        <time>2012-12-19T11:21:10Z</time>
      </trkpt>
      <trkpt lat="42.839106" lon="0.496351">
        <ele>1917.0</ele>
        <time>2012-12-19T11:21:19Z</time>
      </trkpt>
      <trkpt lat="42.839180" lon="0.496282">
        <ele>1916.5</ele>
        <time>2012-12-19T11:21:27Z</time>
      </trkpt>
      <trkpt lat="42.839261" lon="0.496194">
        <ele>1916.0</ele>
        <time>2012-12-19T11:21:36Z</time>
      </trkpt>
      <trkpt lat="42.839332" lon="0.496115">
        <ele>1915.1</ele>
        <time>2012-12-19T11:21:46Z</time>
      </trkpt>
      <trkpt lat="42.839384" lon="0.496026">
        <ele>1914.1</ele>
        <time>2012-12-19T11:22:19Z</time>
      </trkpt>
      <trkpt lat="42.839461" lon="0.495962">
        <ele>1913.6</ele>
        <time>2012-12-19T11:22:35Z</time>
      </trkpt>
      <trkpt lat="42.839524" lon="0.495858">
        <ele>1912.7</ele>
        <time>2012-12-19T11:22:45Z</time>
      </trkpt>
      <trkpt lat="42.839580" lon="0.495757">
        <ele>1912.2</ele>
        <time>2012-12-19T11:22:54Z</time>
      </trkpt>
      <trkpt lat="42.839633" lon="0.495653">
        <ele>1911.7</ele>
        <time>2012-12-19T11:23:03Z</time>
      </trkpt>
      <trkpt lat="42.839684" lon="0.495546">
        <ele>1910.8</ele>
        <time>2012-12-19T11:23:12Z</time>
      </trkpt>
      <trkpt lat="42.839736" lon="0.495439">
        <ele>1910.3</ele>
        <time>2012-12-19T11:23:20Z</time>
      </trkpt>
      <trkpt lat="42.839796" lon="0.495346">
        <ele>1909.3</ele>
        <time>2012-12-19T11:23:29Z</time>
      </trkpt>
      <trkpt lat="42.839853" lon="0.495236">
        <ele>1908.3</ele>
        <time>2012-12-19T11:23:39Z</time>
      </trkpt>
      <trkpt lat="42.839901" lon="0.495132">
        <ele>1907.4</ele>
        <time>2012-12-19T11:23:49Z</time>
      </trkpt>
      <trkpt lat="42.839947" lon="0.495014">
        <ele>1906.9</ele>
        <time>2012-12-19T11:24:00Z</time>
      </trkpt>
      <trkpt lat="42.839994" lon="0.494891">
        <ele>1905.9</ele>
        <time>2012-12-19T11:24:10Z</time>
      </trkpt>
      <trkpt lat="42.840049" lon="0.494786">
        <ele>1905.0</ele>
        <time>2012-12-19T11:24:19Z</time>
      </trkpt>
      <trkpt lat="42.840097" lon="0.494679">
        <ele>1904.0</ele>
        <time>2012-12-19T11:24:27Z</time>
      </trkpt>
      <trkpt lat="42.840131" lon="0.494560">
        <ele>1903.6</ele>
        <time>2012-12-19T11:24:36Z</time>
      </trkpt>
      <trkpt lat="42.840176" lon="0.494445">
        <ele>1903.6</ele>
        <time>2012-12-19T11:24:45Z</time>
      </trkpt>
      <trkpt lat="42.840219" lon="0.494333">
        <ele>1903.6</ele>
        <time>2012-12-19T11:24:54Z</time>
      </trkpt>
      <trkpt lat="42.840260" lon="0.494217">
        <ele>1904.0</ele>
        <time>2012-12-19T11:25:03Z</time>
      </trkpt>
      <trkpt lat="42.840295" lon="0.494097">
        <ele>1904.0</ele>
        <time>2012-12-19T11:25:12Z</time>
      </trkpt>
      <trkpt lat="42.840344" lon="0.493989">
        <ele>1904.0</ele>
        <time>2012-12-19T11:25:21Z</time>
      </trkpt>
      <trkpt lat="42.840388" lon="0.493876">
        <ele>1904.5</ele>
        <time>2012-12-19T11:25:30Z</time>
      </trkpt>
      <trkpt lat="42.840420" lon="0.493750">
        <ele>1905.0</ele>
        <time>2012-12-19T11:25:39Z</time>
      </trkpt>
      <trkpt lat="42.840475" lon="0.493649">
        <ele>1905.5</ele>
        <time>2012-12-19T11:25:48Z</time>
      </trkpt>
      <trkpt lat="42.840534" lon="0.493561">
        <ele>1906.4</ele>
        <time>2012-12-19T11:25:57Z</time>
      </trkpt>
      <trkpt lat="42.840584" lon="0.493449">
        <ele>1907.9</ele>
        <time>2012-12-19T11:26:06Z</time>
      </trkpt>
      <trkpt lat="42.840634" lon="0.493344">
        <ele>1908.8</ele>
        <time>2012-12-19T11:26:15Z</time>
      </trkpt>
      <trkpt lat="42.840694" lon="0.493233">
        <ele>1910.3</ele>
        <time>2012-12-19T11:26:26Z</time>
      </trkpt>
      <trkpt lat="42.840759" lon="0.493144">
        <ele>1911.7</ele>
        <time>2012-12-19T11:26:37Z</time>
      </trkpt>
      <trkpt lat="42.840827" lon="0.493041">
        <ele>1912.7</ele>
        <time>2012-12-19T11:26:48Z</time>
      </trkpt>
      <trkpt lat="42.840894" lon="0.492950">
        <ele>1913.2</ele>
        <time>2012-12-19T11:27:01Z</time>
      </trkpt>
      <trkpt lat="42.840956" lon="0.492851">
        <ele>1915.1</ele>
        <time>2012-12-19T11:27:15Z</time>
      </trkpt>
      <trkpt lat="42.841017" lon="0.492756">
        <ele>1916.0</ele>
        <time>2012-12-19T11:27:29Z</time>
      </trkpt>
      <trkpt lat="42.841080" lon="0.492665">
        <ele>1917.5</ele>
        <time>2012-12-19T11:27:43Z</time>
      </trkpt>
      <trkpt lat="42.841152" lon="0.492565">
        <ele>1919.4</ele>
        <time>2012-12-19T11:28:21Z</time>
      </trkpt>
      <trkpt lat="42.841216" lon="0.492480">
        <ele>1920.8</ele>
        <time>2012-12-19T11:28:36Z</time>
      </trkpt>
      <trkpt lat="42.841287" lon="0.492402">
        <ele>1922.3</ele>
        <time>2012-12-19T11:28:49Z</time>
      </trkpt>
      <trkpt lat="42.841357" lon="0.492327">
        <ele>1923.7</ele>
        <time>2012-12-19T11:29:01Z</time>
      </trkpt>
      <trkpt lat="42.841419" lon="0.492247">
        <ele>1925.2</ele>
        <time>2012-12-19T11:29:14Z</time>
      </trkpt>
      <trkpt lat="42.841489" lon="0.492169">
        <ele>1926.6</ele>
        <time>2012-12-19T11:29:28Z</time>
      </trkpt>
      <trkpt lat="42.841559" lon="0.492088">
        <ele>1928.5</ele>
        <time>2012-12-19T11:29:43Z</time>
      </trkpt>
      <trkpt lat="42.841641" lon="0.492030">
        <ele>1930.0</ele>
        <time>2012-12-19T11:29:58Z</time>
      </trkpt>
      <trkpt lat="42.841710" lon="0.491950">
        <ele>1932.4</ele>
        <time>2012-12-19T11:30:13Z</time>
      </trkpt>
      <trkpt lat="42.841762" lon="0.491867">
        <ele>1932.4</ele>
        <time>2012-12-19T11:30:31Z</time>
      </trkpt>
      <trkpt lat="42.841830" lon="0.491773">
        <ele>1934.3</ele>
        <time>2012-12-19T11:30:45Z</time>
      </trkpt>
      <trkpt lat="42.841900" lon="0.491681">
        <ele>1935.8</ele>
        <time>2012-12-19T11:30:59Z</time>
      </trkpt>
      <trkpt lat="42.841926" lon="0.491646">
        <ele>1935.8</ele>
        <time>2012-12-19T11:34:48Z</time>
      </trkpt>
      <trkpt lat="42.841977" lon="0.491585">
        <ele>1936.7</ele>
        <time>2012-12-19T11:36:00Z</time>
      </trkpt>
      <trkpt lat="42.842046" lon="0.491481">
        <ele>1938.2</ele>
        <time>2012-12-19T11:36:14Z</time>
      </trkpt>
      <trkpt lat="42.842110" lon="0.491377">
        <ele>1937.7</ele>
        <time>2012-12-19T11:36:31Z</time>
      </trkpt>
      <trkpt lat="42.842160" lon="0.491309">
        <ele>1938.2</ele>
        <time>2012-12-19T11:36:51Z</time>
      </trkpt>
      <trkpt lat="42.842217" lon="0.491216">
        <ele>1938.2</ele>
        <time>2012-12-19T11:37:04Z</time>
      </trkpt>
      <trkpt lat="42.842275" lon="0.491127">
        <ele>1938.2</ele>
        <time>2012-12-19T11:37:15Z</time>
      </trkpt>
      <trkpt lat="42.842335" lon="0.491030">
        <ele>1938.6</ele>
        <time>2012-12-19T11:37:25Z</time>
      </trkpt>
      <trkpt lat="42.842387" lon="0.490931">
        <ele>1939.1</ele>
        <time>2012-12-19T11:37:36Z</time>
      </trkpt>
      <trkpt lat="42.842441" lon="0.490825">
        <ele>1939.1</ele>
        <time>2012-12-19T11:37:47Z</time>
      </trkpt>
      <trkpt lat="42.842484" lon="0.490707">
        <ele>1939.6</ele>
        <time>2012-12-19T11:37:58Z</time>
      </trkpt>
      <trkpt lat="42.842539" lon="0.490609">
        <ele>1939.6</ele>
        <time>2012-12-19T11:38:08Z</time>
      </trkpt>
      <trkpt lat="42.842584" lon="0.490501">
        <ele>1939.6</ele>
        <time>2012-12-19T11:38:18Z</time>
      </trkpt>
      <trkpt lat="42.842646" lon="0.490398">
        <ele>1940.6</ele>
        <time>2012-12-19T11:38:30Z</time>
      </trkpt>
      <trkpt lat="42.842707" lon="0.490293">
        <ele>1941.5</ele>
        <time>2012-12-19T11:38:41Z</time>
      </trkpt>
      <trkpt lat="42.842744" lon="0.490171">
        <ele>1941.0</ele>
        <time>2012-12-19T11:38:52Z</time>
      </trkpt>
      <trkpt lat="42.842789" lon="0.490057">
        <ele>1940.6</ele>
        <time>2012-12-19T11:39:02Z</time>
      </trkpt>
      <trkpt lat="42.842830" lon="0.489948">
        <ele>1939.1</ele>
        <time>2012-12-19T11:39:11Z</time>
      </trkpt>
      <trkpt lat="42.842879" lon="0.489839">
        <ele>1938.2</ele>
        <time>2012-12-19T11:39:21Z</time>
      </trkpt>
        <trkpt lat="42.842922" lon="0.489720">
        <ele>1937.2</ele>
        <time>2012-12-19T11:39:31Z</time>
      </trkpt>
      <trkpt lat="42.842957" lon="0.489606">
        <ele>1935.8</ele>
        <time>2012-12-19T11:39:41Z</time>
      </trkpt>
      <trkpt lat="42.842996" lon="0.489481">
        <ele>1934.8</ele>
        <time>2012-12-19T11:39:51Z</time>
      </trkpt>
      <trkpt lat="42.843051" lon="0.489372">
        <ele>1932.9</ele>
        <time>2012-12-19T11:40:01Z</time>
      </trkpt>
      <trkpt lat="42.843097" lon="0.489260">
        <ele>1931.9</ele>
        <time>2012-12-19T11:40:10Z</time>
      </trkpt>
      <trkpt lat="42.843153" lon="0.489162">
        <ele>1931.9</ele>
        <time>2012-12-19T11:40:19Z</time>
      </trkpt>
      <trkpt lat="42.843208" lon="0.489062">
        <ele>1931.9</ele>
        <time>2012-12-19T11:40:30Z</time>
      </trkpt>
      <trkpt lat="42.843269" lon="0.488954">
        <ele>1931.9</ele>
        <time>2012-12-19T11:40:41Z</time>
      </trkpt>
      <trkpt lat="42.843316" lon="0.488842">
        <ele>1932.9</ele>
        <time>2012-12-19T11:40:51Z</time>
      </trkpt>
      <trkpt lat="42.843354" lon="0.488720">
        <ele>1932.4</ele>
        <time>2012-12-19T11:41:02Z</time>
      </trkpt>
      <trkpt lat="42.843384" lon="0.488600">
        <ele>1931.9</ele>
        <time>2012-12-19T11:41:11Z</time>
      </trkpt>
      <trkpt lat="42.843430" lon="0.488492">
        <ele>1931.4</ele>
        <time>2012-12-19T11:41:21Z</time>
      </trkpt>
      <trkpt lat="42.843486" lon="0.488445">
        <ele>1929.9</ele>
        <time>2012-12-19T11:41:31Z</time>
      </trkpt>
      <trkpt lat="42.843627" lon="0.488288">
        <ele>1934.4</ele>
        <time>2012-12-19T11:41:41Z</time>
      </trkpt>
      <trkpt lat="42.843742" lon="0.488150">
        <ele>1937.7</ele>
        <time>2012-12-19T11:41:51Z</time>
      </trkpt>
      <trkpt lat="42.843816" lon="0.488031">
        <ele>1940.9</ele>
        <time>2012-12-19T11:42:02Z</time>
      </trkpt>
      <trkpt lat="42.843897" lon="0.487948">
        <ele>1943.3</ele>
        <time>2012-12-19T11:42:14Z</time>
      </trkpt>
      <trkpt lat="42.843985" lon="0.487791">
        <ele>1947.8</ele>
        <time>2012-12-19T11:42:25Z</time>
      </trkpt>
      <trkpt lat="42.844170" lon="0.487615">
        <ele>1954.4</ele>
        <time>2012-12-19T11:42:37Z</time>
      </trkpt>
      <trkpt lat="42.844353" lon="0.487490">
        <ele>1957.7</ele>
        <time>2012-12-19T11:42:49Z</time>
      </trkpt>
      <trkpt lat="42.844511" lon="0.487382">
        <ele>1958.7</ele>
        <time>2012-12-19T11:43:02Z</time>
      </trkpt>
      <trkpt lat="42.844590" lon="0.487264">
        <ele>1959.7</ele>
        <time>2012-12-19T11:45:53Z</time>
      </trkpt>
      <trkpt lat="42.844659" lon="0.487155">
        <ele>1960.7</ele>
        <time>2012-12-19T11:46:04Z</time>
      </trkpt>
      <trkpt lat="42.844754" lon="0.487090">
        <ele>1961.7</ele>
        <time>2012-12-19T11:46:15Z</time>
      </trkpt>
      <trkpt lat="42.844892" lon="0.486989">
        <ele>1963.5</ele>
        <time>2012-12-19T11:46:27Z</time>
      </trkpt>
      <trkpt lat="42.844992" lon="0.486910">
        <ele>1965.0</ele>
        <time>2012-12-19T11:46:39Z</time>
      </trkpt>
      <trkpt lat="42.845130" lon="0.486874">
        <ele>1963.2</ele>
        <time>2012-12-19T11:46:50Z</time>
      </trkpt>
      <trkpt lat="42.845236" lon="0.486787">
        <ele>1962.3</ele>
        <time>2012-12-19T11:47:01Z</time>
      </trkpt>
      <trkpt lat="42.845342" lon="0.486729">
        <ele>1961.2</ele>
        <time>2012-12-19T11:47:12Z</time>
      </trkpt>
      <trkpt lat="42.845442" lon="0.486657">
        <ele>1960.1</ele>
        <time>2012-12-19T11:47:23Z</time>
      </trkpt>
      <trkpt lat="42.845532" lon="0.486592">
        <ele>1958.7</ele>
        <time>2012-12-19T11:47:34Z</time>
        <name>Cap de la Lit</name>
      </trkpt>
      <trkpt lat="42.845628" lon="0.486498">
        <ele>1957.4</ele>
        <time>2012-12-19T11:47:45Z</time>
      </trkpt>
      <trkpt lat="42.845707" lon="0.486347">
        <ele>1956.5</ele>
        <time>2012-12-19T11:47:56Z</time>
      </trkpt>
      <trkpt lat="42.845760" lon="0.486224">
        <ele>1956.0</ele>
        <time>2012-12-19T11:48:06Z</time>
      </trkpt>
      <trkpt lat="42.845784" lon="0.486094">
        <ele>1956.0</ele>
        <time>2012-12-19T11:48:26Z</time>
      </trkpt>
      <trkpt lat="42.845846" lon="0.485825">
        <ele>1955.3</ele>
        <time>2012-12-19T11:48:48Z</time>
      </trkpt>
      <trkpt lat="42.845891" lon="0.485501">
        <ele>1951.4</ele>
        <time>2012-12-19T11:49:17Z</time>
      </trkpt>
      <trkpt lat="42.845933" lon="0.485193">
        <ele>1947.7</ele>
        <time>2012-12-19T11:49:28Z</time>
      </trkpt>
      <trkpt lat="42.845992" lon="0.485033">
        <ele>1943.9</ele>
        <time>2012-12-19T11:49:38Z</time>
      </trkpt>
      <trkpt lat="42.845993" lon="0.484735">
        <ele>1938.1</ele>
        <time>2012-12-19T11:49:48Z</time>
      </trkpt>
      <trkpt lat="42.846033" lon="0.484531">
        <ele>1931.8</ele>
        <time>2012-12-19T11:49:58Z</time>
      </trkpt>
      <trkpt lat="42.846058" lon="0.484324">
        <ele>1926.1</ele>
        <time>2012-12-19T11:50:08Z</time>
      </trkpt>
      <trkpt lat="42.845981" lon="0.484064">
        <ele>1945.4</ele>
        <time>2012-12-19T11:50:18Z</time>
      </trkpt>
      <trkpt lat="42.845982" lon="0.483931">
        <ele>1945.4</ele>
        <time>2012-12-19T11:50:29Z</time>
      </trkpt>
      <trkpt lat="42.845973" lon="0.483805">
        <ele>1944.4</ele>
        <time>2012-12-19T11:50:40Z</time>
      </trkpt>
      <trkpt lat="42.845940" lon="0.483679">
        <ele>1944.4</ele>
        <time>2012-12-19T11:50:51Z</time>
      </trkpt>
      <trkpt lat="42.845899" lon="0.483555">
        <ele>1943.9</ele>
        <time>2012-12-19T11:51:02Z</time>
      </trkpt>
      <trkpt lat="42.845892" lon="0.483439">
        <ele>1944.4</ele>
        <time>2012-12-19T11:52:02Z</time>
      </trkpt>
      <trkpt lat="42.845860" lon="0.483316">
        <ele>1943.9</ele>
        <time>2012-12-19T11:52:16Z</time>
      </trkpt>
      <trkpt lat="42.845823" lon="0.483191">
        <ele>1945.4</ele>
        <time>2012-12-19T11:52:28Z</time>
      </trkpt>
      <trkpt lat="42.845806" lon="0.483080">
        <ele>1945.8</ele>
        <time>2012-12-19T11:52:41Z</time>
      </trkpt>
      <trkpt lat="42.845792" lon="0.482949">
        <ele>1947.8</ele>
        <time>2012-12-19T11:52:56Z</time>
      </trkpt>
      <trkpt lat="42.845786" lon="0.482825">
        <ele>1949.7</ele>
        <time>2012-12-19T11:53:10Z</time>
      </trkpt>
      <trkpt lat="42.845807" lon="0.482701">
        <ele>1950.2</ele>
        <time>2012-12-19T11:53:21Z</time>
      </trkpt>
      <trkpt lat="42.845836" lon="0.482587">
        <ele>1950.7</ele>
        <time>2012-12-19T11:53:32Z</time>
      </trkpt>
      <trkpt lat="42.845862" lon="0.482465">
        <ele>1951.1</ele>
        <time>2012-12-19T11:53:43Z</time>
      </trkpt>
      <trkpt lat="42.845869" lon="0.482331">
        <ele>1952.1</ele>
        <time>2012-12-19T11:53:54Z</time>
      </trkpt>
      <trkpt lat="42.845888" lon="0.482211">
        <ele>1953.1</ele>
        <time>2012-12-19T11:54:06Z</time>
      </trkpt>
      <trkpt lat="42.845923" lon="0.482086">
        <ele>1954.5</ele>
        <time>2012-12-19T11:54:17Z</time>
      </trkpt>
      <trkpt lat="42.845945" lon="0.481957">
        <ele>1955.0</ele>
        <time>2012-12-19T11:54:30Z</time>
      </trkpt>
      <trkpt lat="42.845936" lon="0.481832">
        <ele>1956.4</ele>
        <time>2012-12-19T11:54:43Z</time>
      </trkpt>
      <trkpt lat="42.845954" lon="0.481697">
        <ele>1957.4</ele>
        <time>2012-12-19T11:54:56Z</time>
      </trkpt>
      <trkpt lat="42.845921" lon="0.481594">
        <ele>1959.3</ele>
        <time>2012-12-19T11:55:11Z</time>
      </trkpt>
      <trkpt lat="42.845948" lon="0.481471">
        <ele>1960.8</ele>
        <time>2012-12-19T11:55:22Z</time>
      </trkpt>
      <trkpt lat="42.845970" lon="0.481348">
        <ele>1961.7</ele>
        <time>2012-12-19T11:55:33Z</time>
      </trkpt>
      <trkpt lat="42.845953" lon="0.481220">
        <ele>1962.7</ele>
        <time>2012-12-19T11:55:46Z</time>
      </trkpt>
      <trkpt lat="42.845940" lon="0.481104">
        <ele>1965.1</ele>
        <time>2012-12-19T11:55:59Z</time>
      </trkpt>
      <trkpt lat="42.845924" lon="0.480989">
        <ele>1967.0</ele>
        <time>2012-12-19T11:56:14Z</time>
      </trkpt>
      <trkpt lat="42.845891" lon="0.480859">
        <ele>1968.9</ele>
        <time>2012-12-19T11:56:29Z</time>
      </trkpt>
      <trkpt lat="42.845867" lon="0.480736">
        <ele>1970.4</ele>
        <time>2012-12-19T11:56:43Z</time>
      </trkpt>
      <trkpt lat="42.845844" lon="0.480609">
        <ele>1972.3</ele>
        <time>2012-12-19T11:56:56Z</time>
      </trkpt>
      <trkpt lat="42.845832" lon="0.480481">
        <ele>1974.2</ele>
        <time>2012-12-19T11:57:09Z</time>
      </trkpt>
      <trkpt lat="42.845807" lon="0.480361">
        <ele>1976.1</ele>
        <time>2012-12-19T11:57:21Z</time>
      </trkpt>
      <trkpt lat="42.845795" lon="0.480235">
        <ele>1977.6</ele>
        <time>2012-12-19T11:57:33Z</time>
      </trkpt>
      <trkpt lat="42.845793" lon="0.480120">
        <ele>1978.5</ele>
        <time>2012-12-19T11:57:46Z</time>
      </trkpt>
      <trkpt lat="42.845764" lon="0.480005">
        <ele>1980.4</ele>
        <time>2012-12-19T11:57:59Z</time>
      </trkpt>
      <trkpt lat="42.845748" lon="0.479886">
        <ele>1982.4</ele>
        <time>2012-12-19T11:58:11Z</time>
      </trkpt>
      <trkpt lat="42.845731" lon="0.479778">
        <ele>1983.3</ele>
        <time>2012-12-19T11:58:23Z</time>
      </trkpt>
      <trkpt lat="42.845725" lon="0.479669">
        <ele>1984.8</ele>
        <time>2012-12-19T11:58:35Z</time>
      </trkpt>
      <trkpt lat="42.845722" lon="0.479557">
        <ele>1986.7</ele>
        <time>2012-12-19T11:58:48Z</time>
      </trkpt>
      <trkpt lat="42.845704" lon="0.479430">
        <ele>1987.7</ele>
        <time>2012-12-19T11:59:01Z</time>
      </trkpt>
      <trkpt lat="42.845698" lon="0.479305">
        <ele>1988.6</ele>
        <time>2012-12-19T11:59:14Z</time>
      </trkpt>
      <trkpt lat="42.845680" lon="0.479181">
        <ele>1989.6</ele>
        <time>2012-12-19T11:59:26Z</time>
      </trkpt>
      <trkpt lat="42.845667" lon="0.479065">
        <ele>1990.1</ele>
        <time>2012-12-19T11:59:36Z</time>
      </trkpt>
      <trkpt lat="42.845664" lon="0.478943">
        <ele>1991.0</ele>
        <time>2012-12-19T11:59:48Z</time>
      </trkpt>
      <trkpt lat="42.845652" lon="0.478819">
        <ele>1992.5</ele>
        <time>2012-12-19T12:00:00Z</time>
      </trkpt>
      <trkpt lat="42.845611" lon="0.478708">
        <ele>1993.4</ele>
        <time>2012-12-19T12:00:11Z</time>
      </trkpt>
      <trkpt lat="42.845583" lon="0.478587">
        <ele>1994.4</ele>
        <time>2012-12-19T12:00:22Z</time>
      </trkpt>
      <trkpt lat="42.845559" lon="0.478463">
        <ele>1994.9</ele>
        <time>2012-12-19T12:00:34Z</time>
      </trkpt>
      <trkpt lat="42.845522" lon="0.478332">
        <ele>1995.8</ele>
        <time>2012-12-19T12:00:46Z</time>
      </trkpt>
      <trkpt lat="42.845496" lon="0.478211">
        <ele>1996.8</ele>
        <time>2012-12-19T12:00:57Z</time>
      </trkpt>
      <trkpt lat="42.845466" lon="0.478089">
        <ele>1997.8</ele>
        <time>2012-12-19T12:01:09Z</time>
      </trkpt>
      <trkpt lat="42.845446" lon="0.477954">
        <ele>1999.2</ele>
        <time>2012-12-19T12:01:20Z</time>
      </trkpt>
      <trkpt lat="42.845445" lon="0.477820">
        <ele>1999.7</ele>
        <time>2012-12-19T12:01:31Z</time>
      </trkpt>
      <trkpt lat="42.845439" lon="0.477696">
        <ele>2000.6</ele>
        <time>2012-12-19T12:01:42Z</time>
      </trkpt>
      <trkpt lat="42.845441" lon="0.477566">
        <ele>2001.1</ele>
        <time>2012-12-19T12:01:53Z</time>
      </trkpt>
      <trkpt lat="42.845460" lon="0.477429">
        <ele>2002.6</ele>
        <time>2012-12-19T12:02:05Z</time>
      </trkpt>
      <trkpt lat="42.845481" lon="0.477311">
        <ele>2004.0</ele>
        <time>2012-12-19T12:02:16Z</time>
      </trkpt>
      <trkpt lat="42.845494" lon="0.477183">
        <ele>2005.0</ele>
        <time>2012-12-19T12:02:27Z</time>
      </trkpt>
      <trkpt lat="42.845524" lon="0.477052">
        <ele>2005.9</ele>
        <time>2012-12-19T12:02:38Z</time>
      </trkpt>
      <trkpt lat="42.845541" lon="0.476927">
        <ele>2006.9</ele>
        <time>2012-12-19T12:02:49Z</time>
      </trkpt>
      <trkpt lat="42.845562" lon="0.476795">
        <ele>2008.3</ele>
        <time>2012-12-19T12:03:01Z</time>
      </trkpt>
      <trkpt lat="42.845589" lon="0.476668">
        <ele>2009.8</ele>
        <time>2012-12-19T12:03:12Z</time>
      </trkpt>
      <trkpt lat="42.845601" lon="0.476547">
        <ele>2010.7</ele>
        <time>2012-12-19T12:03:22Z</time>
      </trkpt>
      <trkpt lat="42.845627" lon="0.476426">
        <ele>2012.2</ele>
        <time>2012-12-19T12:03:33Z</time>
      </trkpt>
      <trkpt lat="42.845660" lon="0.476303">
        <ele>2012.7</ele>
        <time>2012-12-19T12:03:44Z</time>
      </trkpt>
      <trkpt lat="42.845673" lon="0.476161">
        <ele>2014.6</ele>
        <time>2012-12-19T12:03:56Z</time>
      </trkpt>
      <trkpt lat="42.845703" lon="0.476036">
        <ele>2015.5</ele>
        <time>2012-12-19T12:04:09Z</time>
      </trkpt>
      <trkpt lat="42.845721" lon="0.475909">
        <ele>2016.5</ele>
        <time>2012-12-19T12:04:21Z</time>
      </trkpt>
      <trkpt lat="42.845738" lon="0.475805">
        <ele>2017.5</ele>
        <time>2012-12-19T12:04:42Z</time>
      </trkpt>
      <trkpt lat="42.845720" lon="0.475769">
        <ele>2018.9</ele>
        <time>2012-12-19T12:10:58Z</time>
      </trkpt>
      <trkpt lat="42.845732" lon="0.475676">
        <ele>2018.4</ele>
        <time>2012-12-19T12:11:26Z</time>
      </trkpt>
      <trkpt lat="42.845706" lon="0.475554">
        <ele>2017.5</ele>
        <time>2012-12-19T12:11:39Z</time>
      </trkpt>
      <trkpt lat="42.845725" lon="0.475411">
        <ele>2016.0</ele>
        <time>2012-12-19T12:11:52Z</time>
      </trkpt>
      <trkpt lat="42.845728" lon="0.475284">
        <ele>2015.1</ele>
        <time>2012-12-19T12:12:02Z</time>
      </trkpt>
      <trkpt lat="42.845716" lon="0.475150">
        <ele>2013.6</ele>
        <time>2012-12-19T12:12:12Z</time>
      </trkpt>
      <trkpt lat="42.845719" lon="0.475026">
        <ele>2014.1</ele>
        <time>2012-12-19T12:12:22Z</time>
      </trkpt>
      <trkpt lat="42.845717" lon="0.474894">
        <ele>2012.7</ele>
        <time>2012-12-19T12:12:33Z</time>
      </trkpt>
      <trkpt lat="42.845720" lon="0.474759">
        <ele>2012.7</ele>
        <time>2012-12-19T12:12:43Z</time>
      </trkpt>
      <trkpt lat="42.845739" lon="0.474640">
        <ele>2011.7</ele>
        <time>2012-12-19T12:12:52Z</time>
      </trkpt>
      <trkpt lat="42.845744" lon="0.474507">
        <ele>2010.7</ele>
        <time>2012-12-19T12:13:01Z</time>
      </trkpt>
      <trkpt lat="42.845761" lon="0.474386">
        <ele>2010.2</ele>
        <time>2012-12-19T12:13:10Z</time>
      </trkpt>
      <trkpt lat="42.845773" lon="0.474257">
        <ele>2009.3</ele>
        <time>2012-12-19T12:13:19Z</time>
      </trkpt>
      <trkpt lat="42.845743" lon="0.474136">
        <ele>2008.8</ele>
        <time>2012-12-19T12:13:28Z</time>
      </trkpt>
      <trkpt lat="42.845740" lon="0.473999">
        <ele>2009.3</ele>
        <time>2012-12-19T12:13:37Z</time>
      </trkpt>
      <trkpt lat="42.845762" lon="0.473872">
        <ele>2008.3</ele>
        <time>2012-12-19T12:13:46Z</time>
      </trkpt>
      <trkpt lat="42.845753" lon="0.473744">
        <ele>2007.8</ele>
        <time>2012-12-19T12:13:55Z</time>
      </trkpt>
      <trkpt lat="42.845740" lon="0.473621">
        <ele>2006.4</ele>
        <time>2012-12-19T12:14:04Z</time>
      </trkpt>
      <trkpt lat="42.845750" lon="0.473488">
        <ele>2004.5</ele>
        <time>2012-12-19T12:14:13Z</time>
      </trkpt>
      <trkpt lat="42.845775" lon="0.473362">
        <ele>2004.5</ele>
        <time>2012-12-19T12:14:22Z</time>
      </trkpt>
      <trkpt lat="42.845790" lon="0.473231">
        <ele>2004.0</ele>
        <time>2012-12-19T12:14:32Z</time>
      </trkpt>
      <trkpt lat="42.845809" lon="0.473102">
        <ele>2004.5</ele>
        <time>2012-12-19T12:14:42Z</time>
      </trkpt>
      <trkpt lat="42.845851" lon="0.472988">
        <ele>2003.5</ele>
        <time>2012-12-19T12:14:51Z</time>
      </trkpt>
      <trkpt lat="42.845864" lon="0.472862">
        <ele>2001.1</ele>
        <time>2012-12-19T12:15:00Z</time>
      </trkpt>
      <trkpt lat="42.845915" lon="0.472764">
        <ele>2001.1</ele>
        <time>2012-12-19T12:15:10Z</time>
      </trkpt>
      <trkpt lat="42.845946" lon="0.472637">
        <ele>1998.2</ele>
        <time>2012-12-19T12:15:20Z</time>
      </trkpt>
      <trkpt lat="42.845932" lon="0.472504">
        <ele>1995.8</ele>
        <time>2012-12-19T12:15:29Z</time>
      </trkpt>
      <trkpt lat="42.845935" lon="0.472387">
        <ele>1994.9</ele>
        <time>2012-12-19T12:15:37Z</time>
      </trkpt>
      <trkpt lat="42.845960" lon="0.472268">
        <ele>1994.9</ele>
        <time>2012-12-19T12:15:46Z</time>
      </trkpt>
      <trkpt lat="42.845998" lon="0.472159">
        <ele>1995.8</ele>
        <time>2012-12-19T12:15:56Z</time>
      </trkpt>
      <trkpt lat="42.845986" lon="0.472027">
        <ele>1997.3</ele>
        <time>2012-12-19T12:16:07Z</time>
      </trkpt>
      <trkpt lat="42.845991" lon="0.471994">
        <ele>1997.3</ele>
        <time>2012-12-19T12:17:04Z</time>
      </trkpt>
      <trkpt lat="42.846002" lon="0.471927">
        <ele>1998.2</ele>
        <time>2012-12-19T12:18:25Z</time>
      </trkpt>
      <trkpt lat="42.845997" lon="0.471800">
        <ele>1999.7</ele>
        <time>2012-12-19T12:18:35Z</time>
      </trkpt>
      <trkpt lat="42.846003" lon="0.471681">
        <ele>2001.6</ele>
        <time>2012-12-19T12:18:47Z</time>
      </trkpt>
      <trkpt lat="42.846007" lon="0.471560">
        <ele>2004.0</ele>
        <time>2012-12-19T12:19:00Z</time>
      </trkpt>
      <trkpt lat="42.846005" lon="0.471456">
        <ele>2005.9</ele>
        <time>2012-12-19T12:19:15Z</time>
      </trkpt>
      <trkpt lat="42.846001" lon="0.471345">
        <ele>2008.3</ele>
        <time>2012-12-19T12:19:30Z</time>
      </trkpt>
      <trkpt lat="42.846013" lon="0.471228">
        <ele>2011.7</ele>
        <time>2012-12-19T12:19:46Z</time>
      </trkpt>
      <trkpt lat="42.845993" lon="0.471125">
        <ele>2013.6</ele>
        <time>2012-12-19T12:20:02Z</time>
      </trkpt>
      <trkpt lat="42.846019" lon="0.471022">
        <ele>2017.0</ele>
        <time>2012-12-19T12:20:28Z</time>
      </trkpt>
      <trkpt lat="42.846039" lon="0.470901">
        <ele>2020.3</ele>
        <time>2012-12-19T12:20:46Z</time>
      </trkpt>
      <trkpt lat="42.846024" lon="0.470786">
        <ele>2022.8</ele>
        <time>2012-12-19T12:21:05Z</time>
      </trkpt>
      <trkpt lat="42.846003" lon="0.470679">
        <ele>2024.7</ele>
        <time>2012-12-19T12:21:22Z</time>
      </trkpt>
      <trkpt lat="42.846016" lon="0.470599">
        <ele>2027.6</ele>
        <time>2012-12-19T12:21:44Z</time>
      </trkpt>
      <trkpt lat="42.846002" lon="0.470496">
        <ele>2030.4</ele>
        <time>2012-12-19T12:22:01Z</time>
      </trkpt>
      <trkpt lat="42.845977" lon="0.470381">
        <ele>2033.8</ele>
        <time>2012-12-19T12:22:22Z</time>
      </trkpt>
      <trkpt lat="42.845964" lon="0.470296">
        <ele>2037.2</ele>
        <time>2012-12-19T12:22:41Z</time>
      </trkpt>
      <trkpt lat="42.845948" lon="0.470179">
        <ele>2042.0</ele>
        <time>2012-12-19T12:23:07Z</time>
      </trkpt>
      <trkpt lat="42.845895" lon="0.470087">
        <ele>2045.8</ele>
        <time>2012-12-19T12:23:37Z</time>
      </trkpt>
      <trkpt lat="42.845899" lon="0.469957">
        <ele>2049.7</ele>
        <time>2012-12-19T12:24:03Z</time>
      </trkpt>
      <trkpt lat="42.845903" lon="0.469860">
        <ele>2053.0</ele>
        <time>2012-12-19T12:24:27Z</time>
      </trkpt>
      <trkpt lat="42.845930" lon="0.469769">
        <ele>2056.4</ele>
        <time>2012-12-19T12:25:23Z</time>
      </trkpt>
      <trkpt lat="42.845944" lon="0.469651">
        <ele>2059.3</ele>
        <time>2012-12-19T12:25:44Z</time>
      </trkpt>
      <trkpt lat="42.845957" lon="0.469524">
        <ele>2064.1</ele>
        <time>2012-12-19T12:26:14Z</time>
      </trkpt>
      <trkpt lat="42.845943" lon="0.469389">
        <ele>2069.4</ele>
        <time>2012-12-19T12:26:50Z</time>
      </trkpt>
      <trkpt lat="42.845938" lon="0.469267">
        <ele>2073.2</ele>
        <time>2012-12-19T12:27:24Z</time>
      </trkpt>
      <trkpt lat="42.845929" lon="0.469122">
        <ele>2077.1</ele>
        <time>2012-12-19T12:28:38Z</time>
      </trkpt>
      <trkpt lat="42.845939" lon="0.469069">
        <ele>2078.5</ele>
        <time>2012-12-19T12:30:01Z</time>
      </trkpt>
      <trkpt lat="42.845996" lon="0.468981">
        <ele>2080.9</ele>
        <time>2012-12-19T12:30:30Z</time>
      </trkpt>
      <trkpt lat="42.846038" lon="0.468856">
        <ele>2083.8</ele>
        <time>2012-12-19T12:30:48Z</time>
      </trkpt>
      <trkpt lat="42.846047" lon="0.468754">
        <ele>2085.7</ele>
        <time>2012-12-19T12:31:06Z</time>
      </trkpt>
      <trkpt lat="42.846083" lon="0.468781">
        <ele>2086.2</ele>
        <time>2012-12-19T12:34:48Z</time>
      </trkpt>
      <trkpt lat="42.846131" lon="0.468756">
        <ele>2087.2</ele>
        <time>2012-12-19T12:35:05Z</time>
      </trkpt>
      <trkpt lat="42.846121" lon="0.468755">
        <ele>2086.7</ele>
        <time>2012-12-19T12:35:26Z</time>
      </trkpt>
      <trkpt lat="42.846190" lon="0.468678">
        <ele>2086.7</ele>
        <time>2012-12-19T12:35:37Z</time>
      </trkpt>
      <trkpt lat="42.846257" lon="0.468585">
        <ele>2088.1</ele>
        <time>2012-12-19T12:35:51Z</time>
      </trkpt>
      <trkpt lat="42.846318" lon="0.468497">
        <ele>2088.6</ele>
        <time>2012-12-19T12:36:04Z</time>
      </trkpt>
      <trkpt lat="42.846383" lon="0.468406">
        <ele>2089.6</ele>
        <time>2012-12-19T12:36:21Z</time>
      </trkpt>
      <trkpt lat="42.846465" lon="0.468329">
        <ele>2090.5</ele>
        <time>2012-12-19T12:36:42Z</time>
      </trkpt>
      <trkpt lat="42.846533" lon="0.468255">
        <ele>2091.5</ele>
        <time>2012-12-19T12:36:53Z</time>
      </trkpt>
      <trkpt lat="42.846604" lon="0.468167">
        <ele>2092.4</ele>
        <time>2012-12-19T12:37:04Z</time>
      </trkpt>
      <trkpt lat="42.846666" lon="0.468066">
        <ele>2092.4</ele>
        <time>2012-12-19T12:37:16Z</time>
      </trkpt>
      <trkpt lat="42.846723" lon="0.467967">
        <ele>2092.4</ele>
        <time>2012-12-19T12:37:27Z</time>
      </trkpt>
      <trkpt lat="42.846787" lon="0.467890">
        <ele>2092.9</ele>
        <time>2012-12-19T12:37:37Z</time>
      </trkpt>
      <trkpt lat="42.846867" lon="0.467832">
        <ele>2093.4</ele>
        <time>2012-12-19T12:38:13Z</time>
      </trkpt>
      <trkpt lat="42.846934" lon="0.467779">
        <ele>2093.9</ele>
        <time>2012-12-19T12:38:29Z</time>
      </trkpt>
      <trkpt lat="42.846992" lon="0.467812">
        <ele>2092.4</ele>
        <time>2012-12-19T12:40:12Z</time>
      </trkpt>
      <trkpt lat="42.846967" lon="0.467809">
        <ele>2089.6</ele>
        <time>2012-12-19T13:15:41Z</time>
      </trkpt>
      <trkpt lat="42.846975" lon="0.467804">
        <ele>2091.0</ele>
        <time>2012-12-19T13:24:27Z</time>
      </trkpt>
      <trkpt lat="42.846931" lon="0.467790">
        <ele>2090.5</ele>
        <time>2012-12-19T13:27:02Z</time>
      </trkpt>
      <trkpt lat="42.846972" lon="0.467785">
        <ele>2090.5</ele>
        <time>2012-12-19T13:27:22Z</time>
      </trkpt>
      <trkpt lat="42.846965" lon="0.467783">
        <ele>2090.0</ele>
        <time>2012-12-19T13:28:15Z</time>
      </trkpt>
      <trkpt lat="42.846977" lon="0.467801">
        <ele>2090.0</ele>
        <time>2012-12-19T13:30:01Z</time>
      </trkpt>
      <trkpt lat="42.846983" lon="0.467804">
        <ele>2088.6</ele>
        <time>2012-12-19T13:33:48Z</time>
      </trkpt>
      <trkpt lat="42.846932" lon="0.467780">
        <ele>2089.1</ele>
        <time>2012-12-19T13:35:24Z</time>
      </trkpt>
      <trkpt lat="42.846863" lon="0.467859">
        <ele>2088.6</ele>
        <time>2012-12-19T13:35:40Z</time>
      </trkpt>
      <trkpt lat="42.846793" lon="0.467944">
        <ele>2089.1</ele>
        <time>2012-12-19T13:35:51Z</time>
      </trkpt>
      <trkpt lat="42.846720" lon="0.468034">
        <ele>2089.1</ele>
        <time>2012-12-19T13:36:01Z</time>
      </trkpt>
      <trkpt lat="42.846649" lon="0.468123">
        <ele>2088.6</ele>
        <time>2012-12-19T13:36:13Z</time>
      </trkpt>
      <trkpt lat="42.846576" lon="0.468216">
        <ele>2088.1</ele>
        <time>2012-12-19T13:36:23Z</time>
      </trkpt>
      <trkpt lat="42.846507" lon="0.468301">
        <ele>2087.2</ele>
        <time>2012-12-19T13:36:33Z</time>
      </trkpt>
      <trkpt lat="42.846456" lon="0.468355">
        <ele>2086.2</ele>
        <time>2012-12-19T13:37:30Z</time>
      </trkpt>
      <trkpt lat="42.846383" lon="0.468446">
        <ele>2085.2</ele>
        <time>2012-12-19T13:37:41Z</time>
      </trkpt>
      <trkpt lat="42.846308" lon="0.468521">
        <ele>2083.3</ele>
        <time>2012-12-19T13:37:51Z</time>
      </trkpt>
      <trkpt lat="42.846243" lon="0.468613">
        <ele>2082.8</ele>
        <time>2012-12-19T13:38:02Z</time>
      </trkpt>
      <trkpt lat="42.846170" lon="0.468703">
        <ele>2081.4</ele>
        <time>2012-12-19T13:38:13Z</time>
      </trkpt>
      <trkpt lat="42.846096" lon="0.468774">
        <ele>2080.9</ele>
        <time>2012-12-19T13:38:24Z</time>
      </trkpt>
      <trkpt lat="42.846063" lon="0.468849">
        <ele>2081.4</ele>
        <time>2012-12-19T13:39:51Z</time>
      </trkpt>
      <trkpt lat="42.846017" lon="0.468950">
        <ele>2078.5</ele>
        <time>2012-12-19T13:40:12Z</time>
      </trkpt>
      <trkpt lat="42.845966" lon="0.469068">
        <ele>2076.1</ele>
        <time>2012-12-19T13:40:23Z</time>
      </trkpt>
      <trkpt lat="42.845907" lon="0.469171">
        <ele>2073.7</ele>
        <time>2012-12-19T13:40:33Z</time>
      </trkpt>
      <trkpt lat="42.845842" lon="0.469266">
        <ele>2071.3</ele>
        <time>2012-12-19T13:40:44Z</time>
      </trkpt>
      <trkpt lat="42.845796" lon="0.469366">
        <ele>2067.9</ele>
        <time>2012-12-19T13:40:54Z</time>
      </trkpt>
      <trkpt lat="42.845749" lon="0.469470">
        <ele>2066.5</ele>
        <time>2012-12-19T13:41:04Z</time>
      </trkpt>
      <trkpt lat="42.845690" lon="0.469566">
        <ele>2064.6</ele>
        <time>2012-12-19T13:41:15Z</time>
      </trkpt>
      <trkpt lat="42.845659" lon="0.469685">
        <ele>2062.2</ele>
        <time>2012-12-19T13:41:26Z</time>
      </trkpt>
      <trkpt lat="42.845648" lon="0.469789">
        <ele>2059.8</ele>
        <time>2012-12-19T13:42:26Z</time>
      </trkpt>
      <trkpt lat="42.845721" lon="0.469846">
        <ele>2055.4</ele>
        <time>2012-12-19T13:42:46Z</time>
      </trkpt>
      <trkpt lat="42.845800" lon="0.469881">
        <ele>2051.6</ele>
        <time>2012-12-19T13:43:20Z</time>
      </trkpt>
      <trkpt lat="42.845852" lon="0.469971">
        <ele>2047.3</ele>
        <time>2012-12-19T13:43:42Z</time>
      </trkpt>
      <trkpt lat="42.845923" lon="0.470059">
        <ele>2042.9</ele>
        <time>2012-12-19T13:44:09Z</time>
      </trkpt>
      <trkpt lat="42.845916" lon="0.470184">
        <ele>2039.1</ele>
        <time>2012-12-19T13:44:26Z</time>
      </trkpt>
      <trkpt lat="42.845917" lon="0.470308">
        <ele>2034.8</ele>
        <time>2012-12-19T13:44:46Z</time>
      </trkpt>
      <trkpt lat="42.845942" lon="0.470431">
        <ele>2030.9</ele>
        <time>2012-12-19T13:45:01Z</time>
      </trkpt>
      <trkpt lat="42.845956" lon="0.470536">
        <ele>2026.6</ele>
        <time>2012-12-19T13:45:15Z</time>
      </trkpt>
      <trkpt lat="42.845983" lon="0.470654">
        <ele>2023.2</ele>
        <time>2012-12-19T13:45:28Z</time>
      </trkpt>
      <trkpt lat="42.845999" lon="0.470771">
        <ele>2019.9</ele>
        <time>2012-12-19T13:45:41Z</time>
      </trkpt>
      <trkpt lat="42.845961" lon="0.470881">
        <ele>2017.9</ele>
        <time>2012-12-19T13:45:54Z</time>
      </trkpt>
      <trkpt lat="42.845982" lon="0.471007">
        <ele>2014.6</ele>
        <time>2012-12-19T13:46:06Z</time>
      </trkpt>
      <trkpt lat="42.845998" lon="0.471131">
        <ele>2011.7</ele>
        <time>2012-12-19T13:46:20Z</time>
      </trkpt>
      <trkpt lat="42.845991" lon="0.471253">
        <ele>2007.8</ele>
        <time>2012-12-19T13:46:32Z</time>
      </trkpt>
      <trkpt lat="42.845981" lon="0.471362">
        <ele>2004.5</ele>
        <time>2012-12-19T13:46:44Z</time>
      </trkpt>
      <trkpt lat="42.846010" lon="0.471485">
        <ele>2002.1</ele>
        <time>2012-12-19T13:46:56Z</time>
      </trkpt>
      <trkpt lat="42.846026" lon="0.471611">
        <ele>1999.7</ele>
        <time>2012-12-19T13:47:07Z</time>
      </trkpt>
      <trkpt lat="42.846030" lon="0.471747">
        <ele>1997.8</ele>
        <time>2012-12-19T13:47:18Z</time>
      </trkpt>
      <trkpt lat="42.846020" lon="0.471871">
        <ele>1995.3</ele>
        <time>2012-12-19T13:47:29Z</time>
      </trkpt>
      <trkpt lat="42.846024" lon="0.471994">
        <ele>1993.9</ele>
        <time>2012-12-19T13:47:45Z</time>
      </trkpt>
      <trkpt lat="42.846017" lon="0.472001">
        <ele>1992.5</ele>
        <time>2012-12-19T13:53:28Z</time>
      </trkpt>
      <trkpt lat="42.846005" lon="0.472116">
        <ele>1992.0</ele>
        <time>2012-12-19T13:53:40Z</time>
      </trkpt>
      <trkpt lat="42.846011" lon="0.472217">
        <ele>1992.0</ele>
        <time>2012-12-19T13:53:53Z</time>
      </trkpt>
      <trkpt lat="42.846007" lon="0.472341">
        <ele>1991.0</ele>
        <time>2012-12-19T13:54:02Z</time>
      </trkpt>
      <trkpt lat="42.845975" lon="0.472468">
        <ele>1991.0</ele>
        <time>2012-12-19T13:54:14Z</time>
      </trkpt>
      <trkpt lat="42.845959" lon="0.472588">
        <ele>1992.9</ele>
        <time>2012-12-19T13:54:26Z</time>
      </trkpt>
      <trkpt lat="42.845943" lon="0.472721">
        <ele>1994.9</ele>
        <time>2012-12-19T13:54:40Z</time>
      </trkpt>
      <trkpt lat="42.845905" lon="0.472828">
        <ele>1996.3</ele>
        <time>2012-12-19T13:54:53Z</time>
      </trkpt>
      <trkpt lat="42.845855" lon="0.472924">
        <ele>1997.8</ele>
        <time>2012-12-19T13:55:05Z</time>
      </trkpt>
      <trkpt lat="42.845845" lon="0.473041">
        <ele>1999.7</ele>
        <time>2012-12-19T13:55:16Z</time>
      </trkpt>
      <trkpt lat="42.845807" lon="0.473166">
        <ele>1999.7</ele>
        <time>2012-12-19T13:55:28Z</time>
      </trkpt>
      <trkpt lat="42.845785" lon="0.473243">
        <ele>2000.6</ele>
        <time>2012-12-19T13:56:15Z</time>
      </trkpt>
      <trkpt lat="42.845787" lon="0.473328">
        <ele>2000.6</ele>
        <time>2012-12-19T13:57:19Z</time>
      </trkpt>
      <trkpt lat="42.845775" lon="0.473461">
        <ele>2000.2</ele>
        <time>2012-12-19T13:57:30Z</time>
      </trkpt>
      <trkpt lat="42.845770" lon="0.473576">
        <ele>2001.1</ele>
        <time>2012-12-19T13:57:41Z</time>
      </trkpt>
      <trkpt lat="42.845749" lon="0.473702">
        <ele>2003.0</ele>
        <time>2012-12-19T13:57:52Z</time>
      </trkpt>
      <trkpt lat="42.845761" lon="0.473836">
        <ele>2004.0</ele>
        <time>2012-12-19T13:58:03Z</time>
      </trkpt>
      <trkpt lat="42.845751" lon="0.473968">
        <ele>2004.5</ele>
        <time>2012-12-19T13:58:14Z</time>
      </trkpt>
      <trkpt lat="42.845774" lon="0.474084">
        <ele>2004.5</ele>
        <time>2012-12-19T13:58:23Z</time>
      </trkpt>
      <trkpt lat="42.845778" lon="0.474215">
        <ele>2004.5</ele>
        <time>2012-12-19T13:58:34Z</time>
      </trkpt>
      <trkpt lat="42.845780" lon="0.474328">
        <ele>2005.4</ele>
        <time>2012-12-19T13:58:45Z</time>
      </trkpt>
      <trkpt lat="42.845767" lon="0.474451">
        <ele>2006.4</ele>
        <time>2012-12-19T13:58:57Z</time>
      </trkpt>
      <trkpt lat="42.845756" lon="0.474585">
        <ele>2006.9</ele>
        <time>2012-12-19T13:59:09Z</time>
      </trkpt>
      <trkpt lat="42.845735" lon="0.474707">
        <ele>2007.4</ele>
        <time>2012-12-19T13:59:23Z</time>
      </trkpt>
      <trkpt lat="42.845730" lon="0.474830">
        <ele>2008.3</ele>
        <time>2012-12-19T13:59:37Z</time>
      </trkpt>
      <trkpt lat="42.845728" lon="0.474948">
        <ele>2008.8</ele>
        <time>2012-12-19T13:59:48Z</time>
      </trkpt>
      <trkpt lat="42.845731" lon="0.475076">
        <ele>2009.3</ele>
        <time>2012-12-19T14:00:02Z</time>
      </trkpt>
      <trkpt lat="42.845744" lon="0.475209">
        <ele>2009.8</ele>
        <time>2012-12-19T14:00:15Z</time>
      </trkpt>
      <trkpt lat="42.845762" lon="0.475319">
        <ele>2010.7</ele>
        <time>2012-12-19T14:00:28Z</time>
      </trkpt>
      <trkpt lat="42.845768" lon="0.475449">
        <ele>2012.2</ele>
        <time>2012-12-19T14:00:40Z</time>
      </trkpt>
      <trkpt lat="42.845778" lon="0.475571">
        <ele>2013.6</ele>
        <time>2012-12-19T14:00:51Z</time>
      </trkpt>
      <trkpt lat="42.845778" lon="0.475697">
        <ele>2014.1</ele>
        <time>2012-12-19T14:01:01Z</time>
      </trkpt>
      <trkpt lat="42.845752" lon="0.475817">
        <ele>2014.6</ele>
        <time>2012-12-19T14:01:13Z</time>
      </trkpt>
      <trkpt lat="42.845735" lon="0.475833">
        <ele>2013.6</ele>
        <time>2012-12-19T14:05:59Z</time>
      </trkpt>
      <trkpt lat="42.845726" lon="0.475964">
        <ele>2012.2</ele>
        <time>2012-12-19T14:06:12Z</time>
      </trkpt>
      <trkpt lat="42.845704" lon="0.476077">
        <ele>2010.2</ele>
        <time>2012-12-19T14:06:25Z</time>
      </trkpt>
      <trkpt lat="42.845688" lon="0.476193">
        <ele>2009.8</ele>
        <time>2012-12-19T14:06:36Z</time>
      </trkpt>
      <trkpt lat="42.845686" lon="0.476317">
        <ele>2008.3</ele>
        <time>2012-12-19T14:06:46Z</time>
      </trkpt>
      <trkpt lat="42.845649" lon="0.476446">
        <ele>2007.4</ele>
        <time>2012-12-19T14:06:57Z</time>
      </trkpt>
      <trkpt lat="42.845630" lon="0.476570">
        <ele>2006.4</ele>
        <time>2012-12-19T14:07:06Z</time>
      </trkpt>
      <trkpt lat="42.845604" lon="0.476685">
        <ele>2005.0</ele>
        <time>2012-12-19T14:07:14Z</time>
      </trkpt>
      <trkpt lat="42.845577" lon="0.476818">
        <ele>2004.0</ele>
        <time>2012-12-19T14:07:23Z</time>
      </trkpt>
      <trkpt lat="42.845556" lon="0.476952">
        <ele>2003.0</ele>
        <time>2012-12-19T14:07:32Z</time>
      </trkpt>
      <trkpt lat="42.845533" lon="0.477086">
        <ele>2002.1</ele>
        <time>2012-12-19T14:07:41Z</time>
      </trkpt>
      <trkpt lat="42.845512" lon="0.477214">
        <ele>2001.1</ele>
        <time>2012-12-19T14:07:50Z</time>
      </trkpt>
      <trkpt lat="42.845503" lon="0.477341">
        <ele>1999.2</ele>
        <time>2012-12-19T14:07:59Z</time>
      </trkpt>
      <trkpt lat="42.845473" lon="0.477471">
        <ele>1998.2</ele>
        <time>2012-12-19T14:08:10Z</time>
      </trkpt>
      <trkpt lat="42.845447" lon="0.477602">
        <ele>1996.8</ele>
        <time>2012-12-19T14:10:10Z</time>
      </trkpt>
      <trkpt lat="42.845447" lon="0.477721">
        <ele>1995.8</ele>
        <time>2012-12-19T14:10:19Z</time>
      </trkpt>
      <trkpt lat="42.845463" lon="0.477849">
        <ele>1994.4</ele>
        <time>2012-12-19T14:10:28Z</time>
      </trkpt>
      <trkpt lat="42.845471" lon="0.477981">
        <ele>1993.9</ele>
        <time>2012-12-19T14:10:37Z</time>
      </trkpt>
      <trkpt lat="42.845494" lon="0.478108">
        <ele>1992.5</ele>
        <time>2012-12-19T14:10:46Z</time>
      </trkpt>
      <trkpt lat="42.845526" lon="0.478239">
        <ele>1992.0</ele>
        <time>2012-12-19T14:10:55Z</time>
      </trkpt>
      <trkpt lat="42.845550" lon="0.478371">
        <ele>1991.0</ele>
        <time>2012-12-19T14:11:04Z</time>
      </trkpt>
      <trkpt lat="42.845582" lon="0.478499">
        <ele>1989.6</ele>
        <time>2012-12-19T14:11:13Z</time>
      </trkpt>
      <trkpt lat="42.845617" lon="0.478625">
        <ele>1988.6</ele>
        <time>2012-12-19T14:11:22Z</time>
      </trkpt>
      <trkpt lat="42.845644" lon="0.478751">
        <ele>1987.7</ele>
        <time>2012-12-19T14:11:32Z</time>
      </trkpt>
      <trkpt lat="42.845678" lon="0.478866">
        <ele>1987.2</ele>
        <time>2012-12-19T14:11:41Z</time>
      </trkpt>
      <trkpt lat="42.845677" lon="0.478992">
        <ele>1985.7</ele>
        <time>2012-12-19T14:11:49Z</time>
      </trkpt>
      <trkpt lat="42.845682" lon="0.479117">
        <ele>1984.8</ele>
        <time>2012-12-19T14:11:57Z</time>
      </trkpt>
      <trkpt lat="42.845703" lon="0.479260">
        <ele>1984.3</ele>
        <time>2012-12-19T14:12:06Z</time>
      </trkpt>
      <trkpt lat="42.845715" lon="0.479388">
        <ele>1982.9</ele>
        <time>2012-12-19T14:12:15Z</time>
      </trkpt>
      <trkpt lat="42.845729" lon="0.479516">
        <ele>1981.9</ele>
        <time>2012-12-19T14:12:24Z</time>
      </trkpt>
      <trkpt lat="42.845746" lon="0.479648">
        <ele>1979.5</ele>
        <time>2012-12-19T14:12:33Z</time>
      </trkpt>
      <trkpt lat="42.845755" lon="0.479791">
        <ele>1978.5</ele>
        <time>2012-12-19T14:12:42Z</time>
      </trkpt>
      <trkpt lat="42.845763" lon="0.479918">
        <ele>1976.6</ele>
        <time>2012-12-19T14:12:50Z</time>
      </trkpt>
      <trkpt lat="42.845789" lon="0.480053">
        <ele>1974.7</ele>
        <time>2012-12-19T14:12:59Z</time>
      </trkpt>
      <trkpt lat="42.845803" lon="0.480177">
        <ele>1972.8</ele>
        <time>2012-12-19T14:13:07Z</time>
      </trkpt>
      <trkpt lat="42.845810" lon="0.480305">
        <ele>1971.8</ele>
        <time>2012-12-19T14:13:16Z</time>
      </trkpt>
      <trkpt lat="42.845828" lon="0.480440">
        <ele>1969.9</ele>
        <time>2012-12-19T14:13:25Z</time>
      </trkpt>
      <trkpt lat="42.845840" lon="0.480566">
        <ele>1968.4</ele>
        <time>2012-12-19T14:13:34Z</time>
      </trkpt>
      <trkpt lat="42.845854" lon="0.480696">
        <ele>1966.5</ele>
        <time>2012-12-19T14:13:43Z</time>
      </trkpt>
      <trkpt lat="42.845882" lon="0.480828">
        <ele>1964.6</ele>
        <time>2012-12-19T14:13:52Z</time>
      </trkpt>
      <trkpt lat="42.845894" lon="0.480960">
        <ele>1963.2</ele>
        <time>2012-12-19T14:14:01Z</time>
      </trkpt>
      <trkpt lat="42.845918" lon="0.481086">
        <ele>1961.2</ele>
        <time>2012-12-19T14:14:09Z</time>
      </trkpt>
      <trkpt lat="42.845928" lon="0.481209">
        <ele>1959.3</ele>
        <time>2012-12-19T14:14:17Z</time>
      </trkpt>
      <trkpt lat="42.845947" lon="0.481330">
        <ele>1957.4</ele>
        <time>2012-12-19T14:14:25Z</time>
      </trkpt>
      <trkpt lat="42.845938" lon="0.481459">
        <ele>1955.9</ele>
        <time>2012-12-19T14:14:33Z</time>
      </trkpt>
      <trkpt lat="42.845917" lon="0.481579">
        <ele>1955.0</ele>
        <time>2012-12-19T14:14:41Z</time>
      </trkpt>
      <trkpt lat="42.845922" lon="0.481710">
        <ele>1954.0</ele>
        <time>2012-12-19T14:14:50Z</time>
      </trkpt>
      <trkpt lat="42.845932" lon="0.481836">
        <ele>1952.6</ele>
        <time>2012-12-19T14:14:58Z</time>
      </trkpt>
      <trkpt lat="42.845933" lon="0.481969">
        <ele>1951.1</ele>
        <time>2012-12-19T14:15:07Z</time>
      </trkpt>
      <trkpt lat="42.845916" lon="0.482104">
        <ele>1949.7</ele>
        <time>2012-12-19T14:15:15Z</time>
      </trkpt>
      <trkpt lat="42.845936" lon="0.482228">
        <ele>1948.2</ele>
        <time>2012-12-19T14:15:25Z</time>
      </trkpt>
      <trkpt lat="42.845966" lon="0.482349">
        <ele>1947.3</ele>
        <time>2012-12-19T14:15:33Z</time>
      </trkpt>
      <trkpt lat="42.845990" lon="0.482483">
        <ele>1946.3</ele>
        <time>2012-12-19T14:15:42Z</time>
      </trkpt>
      <trkpt lat="42.846021" lon="0.482600">
        <ele>1944.9</ele>
        <time>2012-12-19T14:15:51Z</time>
      </trkpt>
      <trkpt lat="42.846019" lon="0.482735">
        <ele>1943.9</ele>
        <time>2012-12-19T14:15:59Z</time>
      </trkpt>
      <trkpt lat="42.846031" lon="0.482864">
        <ele>1942.5</ele>
        <time>2012-12-19T14:16:07Z</time>
      </trkpt>
      <trkpt lat="42.846049" lon="0.482983">
        <ele>1942.0</ele>
        <time>2012-12-19T14:16:15Z</time>
      </trkpt>
      <trkpt lat="42.846062" lon="0.483117">
        <ele>1941.5</ele>
        <time>2012-12-19T14:16:23Z</time>
      </trkpt>
      <trkpt lat="42.846072" lon="0.483240">
        <ele>1941.5</ele>
        <time>2012-12-19T14:16:32Z</time>
      </trkpt>
      <trkpt lat="42.846087" lon="0.483380">
        <ele>1941.0</ele>
        <time>2012-12-19T14:16:41Z</time>
      </trkpt>
      <trkpt lat="42.846096" lon="0.483519">
        <ele>1942.0</ele>
        <time>2012-12-19T14:16:51Z</time>
      </trkpt>
      <trkpt lat="42.846126" lon="0.483635">
        <ele>1942.5</ele>
        <time>2012-12-19T14:17:01Z</time>
      </trkpt>
      <trkpt lat="42.846140" lon="0.483747">
        <ele>1942.0</ele>
        <time>2012-12-19T14:17:11Z</time>
      </trkpt>
      <trkpt lat="42.846152" lon="0.483874">
        <ele>1943.4</ele>
        <time>2012-12-19T14:17:21Z</time>
      </trkpt>
      <trkpt lat="42.846163" lon="0.483987">
        <ele>1944.4</ele>
        <time>2012-12-19T14:17:37Z</time>
      </trkpt>
      <trkpt lat="42.846191" lon="0.484122">
        <ele>1945.8</ele>
        <time>2012-12-19T14:17:49Z</time>
      </trkpt>
      <trkpt lat="42.846203" lon="0.484256">
        <ele>1946.8</ele>
        <time>2012-12-19T14:18:00Z</time>
      </trkpt>
      <trkpt lat="42.846202" lon="0.484401">
        <ele>1947.3</ele>
        <time>2012-12-19T14:18:11Z</time>
      </trkpt>
      <trkpt lat="42.846199" lon="0.484528">
        <ele>1948.2</ele>
        <time>2012-12-19T14:18:22Z</time>
      </trkpt>
      <trkpt lat="42.846189" lon="0.484654">
        <ele>1950.2</ele>
        <time>2012-12-19T14:18:35Z</time>
      </trkpt>
      <trkpt lat="42.846177" lon="0.484766">
        <ele>1951.1</ele>
        <time>2012-12-19T14:18:48Z</time>
      </trkpt>
      <trkpt lat="42.846171" lon="0.484891">
        <ele>1952.6</ele>
        <time>2012-12-19T14:19:03Z</time>
      </trkpt>
      <trkpt lat="42.846148" lon="0.485008">
        <ele>1954.5</ele>
        <time>2012-12-19T14:19:17Z</time>
      </trkpt>
      <trkpt lat="42.846107" lon="0.485122">
        <ele>1955.5</ele>
        <time>2012-12-19T14:19:31Z</time>
      </trkpt>
      <trkpt lat="42.846077" lon="0.485240">
        <ele>1956.9</ele>
        <time>2012-12-19T14:19:45Z</time>
      </trkpt>
      <trkpt lat="42.846043" lon="0.485356">
        <ele>1959.3</ele>
        <time>2012-12-19T14:20:00Z</time>
      </trkpt>
      <trkpt lat="42.846026" lon="0.485470">
        <ele>1960.8</ele>
        <time>2012-12-19T14:20:14Z</time>
      </trkpt>
      <trkpt lat="42.846002" lon="0.485585">
        <ele>1962.2</ele>
        <time>2012-12-19T14:20:28Z</time>
      </trkpt>
      <trkpt lat="42.846003" lon="0.485684">
        <ele>1963.2</ele>
        <time>2012-12-19T14:21:00Z</time>
      </trkpt>
      <trkpt lat="42.845958" lon="0.485803">
        <ele>1964.1</ele>
        <time>2012-12-19T14:21:11Z</time>
      </trkpt>
      <trkpt lat="42.845931" lon="0.485914">
        <ele>1964.6</ele>
        <time>2012-12-19T14:21:22Z</time>
      </trkpt>
      <trkpt lat="42.845923" lon="0.486031">
        <ele>1965.6</ele>
        <time>2012-12-19T14:21:32Z</time>
      </trkpt>
      <trkpt lat="42.845903" lon="0.486163">
        <ele>1966.0</ele>
        <time>2012-12-19T14:21:42Z</time>
      </trkpt>
      <trkpt lat="42.845883" lon="0.486291">
        <ele>1967.0</ele>
        <time>2012-12-19T14:21:57Z</time>
      </trkpt>
      <trkpt lat="42.845829" lon="0.486397">
        <ele>1967.5</ele>
        <time>2012-12-19T14:22:18Z</time>
      </trkpt>
      <trkpt lat="42.845804" lon="0.486507">
        <ele>1968.4</ele>
        <time>2012-12-19T14:22:35Z</time>
      </trkpt>
      <trkpt lat="42.845750" lon="0.486622">
        <ele>1968.9</ele>
        <time>2012-12-19T14:22:45Z</time>
      </trkpt>
      <trkpt lat="42.845716" lon="0.486741">
        <ele>1969.4</ele>
        <time>2012-12-19T14:22:56Z</time>
      </trkpt>
      <trkpt lat="42.845694" lon="0.486862">
        <ele>1968.9</ele>
        <time>2012-12-19T14:23:07Z</time>
        <name>Cap de la Lit</name>
      </trkpt>
      <trkpt lat="42.845682" lon="0.486980">
        <ele>1968.0</ele>
        <time>2012-12-19T14:23:18Z</time>
      </trkpt>
      <trkpt lat="42.845686" lon="0.487128">
        <ele>1967.5</ele>
        <time>2012-12-19T14:23:30Z</time>
      </trkpt>
      <trkpt lat="42.845737" lon="0.487247">
        <ele>1966.5</ele>
        <time>2012-12-19T14:23:42Z</time>
      </trkpt>
      <trkpt lat="42.845793" lon="0.487325">
        <ele>1964.6</ele>
        <time>2012-12-19T14:24:19Z</time>
      </trkpt>
      <trkpt lat="42.845854" lon="0.487430">
        <ele>1962.7</ele>
        <time>2012-12-19T14:24:29Z</time>
      </trkpt>
      <trkpt lat="42.845910" lon="0.487540">
        <ele>1960.8</ele>
        <time>2012-12-19T14:24:39Z</time>
      </trkpt>
      <trkpt lat="42.845970" lon="0.487646">
        <ele>1957.9</ele>
        <time>2012-12-19T14:24:48Z</time>
      </trkpt>
      <trkpt lat="42.846021" lon="0.487758">
        <ele>1955.9</ele>
        <time>2012-12-19T14:24:57Z</time>
      </trkpt>
      <trkpt lat="42.846065" lon="0.487874">
        <ele>1953.1</ele>
        <time>2012-12-19T14:25:07Z</time>
      </trkpt>
      <trkpt lat="42.846123" lon="0.487977">
        <ele>1950.2</ele>
        <time>2012-12-19T14:25:16Z</time>
      </trkpt>
      <trkpt lat="42.846184" lon="0.488096">
        <ele>1948.2</ele>
        <time>2012-12-19T14:25:28Z</time>
      </trkpt>
      <trkpt lat="42.846236" lon="0.488209">
        <ele>1946.3</ele>
        <time>2012-12-19T14:25:36Z</time>
      </trkpt>
      <trkpt lat="42.846294" lon="0.488311">
        <ele>1944.9</ele>
        <time>2012-12-19T14:25:45Z</time>
      </trkpt>
      <trkpt lat="42.846351" lon="0.488424">
        <ele>1943.0</ele>
        <time>2012-12-19T14:25:53Z</time>
      </trkpt>
      <trkpt lat="42.846407" lon="0.488525">
        <ele>1940.6</ele>
        <time>2012-12-19T14:26:01Z</time>
      </trkpt>
      <trkpt lat="42.846469" lon="0.488640">
        <ele>1938.2</ele>
        <time>2012-12-19T14:26:10Z</time>
      </trkpt>
      <trkpt lat="42.846513" lon="0.488765">
        <ele>1936.2</ele>
        <time>2012-12-19T14:26:18Z</time>
      </trkpt>
      <trkpt lat="42.846552" lon="0.488883">
        <ele>1934.3</ele>
        <time>2012-12-19T14:26:27Z</time>
      </trkpt>
      <trkpt lat="42.846587" lon="0.488999">
        <ele>1932.9</ele>
        <time>2012-12-19T14:26:35Z</time>
      </trkpt>
      <trkpt lat="42.846617" lon="0.489118">
        <ele>1930.9</ele>
        <time>2012-12-19T14:26:43Z</time>
      </trkpt>
      <trkpt lat="42.846645" lon="0.489245">
        <ele>1930.0</ele>
        <time>2012-12-19T14:26:51Z</time>
      </trkpt>
      <trkpt lat="42.846681" lon="0.489364">
        <ele>1928.5</ele>
        <time>2012-12-19T14:26:59Z</time>
      </trkpt>
      <trkpt lat="42.846717" lon="0.489484">
        <ele>1926.6</ele>
        <time>2012-12-19T14:27:08Z</time>
      </trkpt>
      <trkpt lat="42.846763" lon="0.489587">
        <ele>1925.7</ele>
        <time>2012-12-19T14:27:17Z</time>
      </trkpt>
      <trkpt lat="42.846813" lon="0.489691">
        <ele>1923.2</ele>
        <time>2012-12-19T14:27:26Z</time>
      </trkpt>
      <trkpt lat="42.846869" lon="0.489791">
        <ele>1919.9</ele>
        <time>2012-12-19T14:27:38Z</time>
      </trkpt>
      <trkpt lat="42.846920" lon="0.489913">
        <ele>1916.5</ele>
        <time>2012-12-19T14:27:48Z</time>
      </trkpt>
      <trkpt lat="42.846965" lon="0.490024">
        <ele>1914.6</ele>
        <time>2012-12-19T14:27:59Z</time>
      </trkpt>
      <trkpt lat="42.847022" lon="0.490145">
        <ele>1913.2</ele>
        <time>2012-12-19T14:28:20Z</time>
      </trkpt>
      <trkpt lat="42.847067" lon="0.490253">
        <ele>1910.8</ele>
        <time>2012-12-19T14:28:36Z</time>
      </trkpt>
      <trkpt lat="42.848063" lon="0.492539">
        <ele>1895.9</ele>
        <time>2012-12-19T14:31:55Z</time>
      </trkpt>
      <trkpt lat="42.848055" lon="0.492552">
        <ele>1893.4</ele>
        <time>2012-12-19T14:33:11Z</time>
      </trkpt>
      <trkpt lat="42.848098" lon="0.492724">
        <ele>1891.5</ele>
        <time>2012-12-19T14:33:58Z</time>
      </trkpt>
      <trkpt lat="42.848150" lon="0.492825">
        <ele>1891.1</ele>
        <time>2012-12-19T14:34:08Z</time>
      </trkpt>
      <trkpt lat="42.848219" lon="0.492934">
        <ele>1889.6</ele>
        <time>2012-12-19T14:34:18Z</time>
      </trkpt>
      <trkpt lat="42.848271" lon="0.493044">
        <ele>1887.2</ele>
        <time>2012-12-19T14:34:27Z</time>
      </trkpt>
      <trkpt lat="42.848328" lon="0.493151">
        <ele>1885.8</ele>
        <time>2012-12-19T14:34:37Z</time>
      </trkpt>
      <trkpt lat="42.848389" lon="0.493266">
        <ele>1883.8</ele>
        <time>2012-12-19T14:34:46Z</time>
      </trkpt>
      <trkpt lat="42.848448" lon="0.493378">
        <ele>1881.9</ele>
        <time>2012-12-19T14:34:54Z</time>
      </trkpt>
      <trkpt lat="42.848503" lon="0.493498">
        <ele>1879.5</ele>
        <time>2012-12-19T14:35:02Z</time>
      </trkpt>
      <trkpt lat="42.848565" lon="0.493624">
        <ele>1877.1</ele>
        <time>2012-12-19T14:35:10Z</time>
      </trkpt>
      <trkpt lat="42.848620" lon="0.493728">
        <ele>1875.2</ele>
        <time>2012-12-19T14:35:18Z</time>
      </trkpt>
      <trkpt lat="42.848665" lon="0.493850">
        <ele>1873.3</ele>
        <time>2012-12-19T14:35:27Z</time>
      </trkpt>
      <trkpt lat="42.848692" lon="0.493937">
        <ele>1871.3</ele>
        <time>2012-12-19T14:36:04Z</time>
      </trkpt>
      <trkpt lat="42.848738" lon="0.494058">
        <ele>1869.9</ele>
        <time>2012-12-19T14:36:11Z</time>
      </trkpt>
      <trkpt lat="42.848777" lon="0.494181">
        <ele>1868.0</ele>
        <time>2012-12-19T14:36:18Z</time>
      </trkpt>
      <trkpt lat="42.848813" lon="0.494303">
        <ele>1865.6</ele>
        <time>2012-12-19T14:36:25Z</time>
      </trkpt>
      <trkpt lat="42.848840" lon="0.494436">
        <ele>1863.2</ele>
        <time>2012-12-19T14:36:33Z</time>
      </trkpt>
      <trkpt lat="42.848864" lon="0.494560">
        <ele>1859.8</ele>
        <time>2012-12-19T14:36:41Z</time>
      </trkpt>
      <trkpt lat="42.848875" lon="0.494692">
        <ele>1856.4</ele>
        <time>2012-12-19T14:36:51Z</time>
      </trkpt>
      <trkpt lat="42.848882" lon="0.494826">
        <ele>1852.1</ele>
        <time>2012-12-19T14:37:02Z</time>
      </trkpt>
      <trkpt lat="42.848895" lon="0.494960">
        <ele>1849.7</ele>
        <time>2012-12-19T14:37:13Z</time>
      </trkpt>
      <trkpt lat="42.848922" lon="0.495081">
        <ele>1845.4</ele>
        <time>2012-12-19T14:37:33Z</time>
      </trkpt>
      <trkpt lat="42.848905" lon="0.495219">
        <ele>1840.6</ele>
        <time>2012-12-19T14:37:46Z</time>
      </trkpt>
      <trkpt lat="42.848892" lon="0.495346">
        <ele>1834.8</ele>
        <time>2012-12-19T14:37:55Z</time>
      </trkpt>
      <trkpt lat="42.848878" lon="0.495476">
        <ele>1828.6</ele>
        <time>2012-12-19T14:38:03Z</time>
      </trkpt>
      <trkpt lat="42.848864" lon="0.495614">
        <ele>1822.8</ele>
        <time>2012-12-19T14:38:10Z</time>
      </trkpt>
      <trkpt lat="42.848851" lon="0.495732">
        <ele>1818.0</ele>
        <time>2012-12-19T14:38:17Z</time>
      </trkpt>
      <trkpt lat="42.848845" lon="0.495865">
        <ele>1813.7</ele>
        <time>2012-12-19T14:38:23Z</time>
      </trkpt>
      <trkpt lat="42.848839" lon="0.495980">
        <ele>1808.9</ele>
        <time>2012-12-19T14:38:30Z</time>
      </trkpt>
      <trkpt lat="42.848826" lon="0.496102">
        <ele>1803.6</ele>
        <time>2012-12-19T14:38:37Z</time>
      </trkpt>
      <trkpt lat="42.848821" lon="0.496232">
        <ele>1799.2</ele>
        <time>2012-12-19T14:38:46Z</time>
      </trkpt>
      <trkpt lat="42.848801" lon="0.496361">
        <ele>1794.4</ele>
        <time>2012-12-19T14:38:55Z</time>
      </trkpt>
      <trkpt lat="42.848804" lon="0.496493">
        <ele>1790.6</ele>
        <time>2012-12-19T14:39:03Z</time>
      </trkpt>
      <trkpt lat="42.848787" lon="0.496626">
        <ele>1786.8</ele>
        <time>2012-12-19T14:39:11Z</time>
      </trkpt>
      <trkpt lat="42.848820" lon="0.496751">
        <ele>1785.3</ele>
        <time>2012-12-19T14:39:20Z</time>
      </trkpt>
      <trkpt lat="42.848844" lon="0.496845">
        <ele>1782.9</ele>
        <time>2012-12-19T14:42:32Z</time>
      </trkpt>
      <trkpt lat="42.848870" lon="0.496973">
        <ele>1781.5</ele>
        <time>2012-12-19T14:45:37Z</time>
      </trkpt>
      <trkpt lat="42.848886" lon="0.497092">
        <ele>1781.5</ele>
        <time>2012-12-19T14:45:49Z</time>
      </trkpt>
      <trkpt lat="42.848916" lon="0.497234">
        <ele>1781.5</ele>
        <time>2012-12-19T14:46:54Z</time>
      </trkpt>
      <trkpt lat="42.848926" lon="0.497359">
        <ele>1780.5</ele>
        <time>2012-12-19T14:47:03Z</time>
      </trkpt>
      <trkpt lat="42.848907" lon="0.497495">
        <ele>1780.5</ele>
        <time>2012-12-19T14:47:14Z</time>
      </trkpt>
      <trkpt lat="42.848867" lon="0.497629">
        <ele>1778.1</ele>
        <time>2012-12-19T14:47:26Z</time>
      </trkpt>
      <trkpt lat="42.848831" lon="0.497749">
        <ele>1775.7</ele>
        <time>2012-12-19T14:47:35Z</time>
      </trkpt>
      <trkpt lat="42.848816" lon="0.497859">
        <ele>1774.2</ele>
        <time>2012-12-19T14:47:43Z</time>
      </trkpt>
      <trkpt lat="42.848811" lon="0.497985">
        <ele>1772.8</ele>
        <time>2012-12-19T14:47:57Z</time>
      </trkpt>
      <trkpt lat="42.848801" lon="0.498112">
        <ele>1770.9</ele>
        <time>2012-12-19T14:48:06Z</time>
      </trkpt>
      <trkpt lat="42.848814" lon="0.498240">
        <ele>1768.5</ele>
        <time>2012-12-19T14:48:15Z</time>
      </trkpt>
      <trkpt lat="42.848830" lon="0.498370">
        <ele>1767.0</ele>
        <time>2012-12-19T14:48:25Z</time>
      </trkpt>
      <trkpt lat="42.848831" lon="0.498500">
        <ele>1764.6</ele>
        <time>2012-12-19T14:48:34Z</time>
      </trkpt>
      <trkpt lat="42.848839" lon="0.498624">
        <ele>1761.3</ele>
        <time>2012-12-19T14:48:45Z</time>
      </trkpt>
      <trkpt lat="42.848836" lon="0.498743">
        <ele>1757.9</ele>
        <time>2012-12-19T14:48:55Z</time>
      </trkpt>
      <trkpt lat="42.848843" lon="0.498851">
        <ele>1755.5</ele>
        <time>2012-12-19T14:49:05Z</time>
      </trkpt>
      <trkpt lat="42.848847" lon="0.498980">
        <ele>1753.1</ele>
        <time>2012-12-19T14:49:14Z</time>
      </trkpt>
      <trkpt lat="42.848844" lon="0.499114">
        <ele>1750.2</ele>
        <time>2012-12-19T14:49:24Z</time>
      </trkpt>
      <trkpt lat="42.848852" lon="0.499237">
        <ele>1747.3</ele>
        <time>2012-12-19T14:49:34Z</time>
      </trkpt>
      <trkpt lat="42.848862" lon="0.499360">
        <ele>1743.5</ele>
        <time>2012-12-19T14:49:43Z</time>
      </trkpt>
      <trkpt lat="42.848888" lon="0.499495">
        <ele>1739.6</ele>
        <time>2012-12-19T14:49:54Z</time>
      </trkpt>
      <trkpt lat="42.848902" lon="0.499623">
        <ele>1735.8</ele>
        <time>2012-12-19T14:50:04Z</time>
      </trkpt>
      <trkpt lat="42.848909" lon="0.499755">
        <ele>1731.9</ele>
        <time>2012-12-19T14:50:14Z</time>
      </trkpt>
      <trkpt lat="42.848926" lon="0.499887">
        <ele>1728.6</ele>
        <time>2012-12-19T14:50:25Z</time>
      </trkpt>
      <trkpt lat="42.848927" lon="0.500020">
        <ele>1726.2</ele>
        <time>2012-12-19T14:50:34Z</time>
      </trkpt>
      <trkpt lat="42.848937" lon="0.500144">
        <ele>1723.3</ele>
        <time>2012-12-19T14:50:44Z</time>
      </trkpt>
      <trkpt lat="42.848955" lon="0.500279">
        <ele>1719.5</ele>
        <time>2012-12-19T14:50:55Z</time>
      </trkpt>
      <trkpt lat="42.848956" lon="0.500419">
        <ele>1716.1</ele>
        <time>2012-12-19T14:51:06Z</time>
      </trkpt>
      <trkpt lat="42.848939" lon="0.500556">
        <ele>1712.7</ele>
        <time>2012-12-19T14:51:17Z</time>
      </trkpt>
      <trkpt lat="42.848912" lon="0.500688">
        <ele>1710.8</ele>
        <time>2012-12-19T14:53:14Z</time>
      </trkpt>
      <trkpt lat="42.848864" lon="0.500758">
        <ele>1707.9</ele>
        <time>2012-12-19T14:55:02Z</time>
      </trkpt>
      <trkpt lat="42.848866" lon="0.500892">
        <ele>1705.5</ele>
        <time>2012-12-19T14:55:14Z</time>
      </trkpt>
      <trkpt lat="42.848863" lon="0.501031">
        <ele>1702.6</ele>
        <time>2012-12-19T14:55:27Z</time>
      </trkpt>
      <trkpt lat="42.848835" lon="0.501167">
        <ele>1700.7</ele>
        <time>2012-12-19T14:55:41Z</time>
      </trkpt>
      <trkpt lat="42.848816" lon="0.501294">
        <ele>1697.8</ele>
        <time>2012-12-19T14:55:50Z</time>
      </trkpt>
      <trkpt lat="42.848812" lon="0.501426">
        <ele>1694.9</ele>
        <time>2012-12-19T14:56:01Z</time>
      </trkpt>
      <trkpt lat="42.848778" lon="0.501552">
        <ele>1691.1</ele>
        <time>2012-12-19T14:56:12Z</time>
      </trkpt>
      <trkpt lat="42.848688" lon="0.501614">
        <ele>1689.2</ele>
        <time>2012-12-19T14:56:34Z</time>
      </trkpt>
      <trkpt lat="42.848589" lon="0.501644">
        <ele>1684.4</ele>
        <time>2012-12-19T14:56:44Z</time>
      </trkpt>
      <trkpt lat="42.848508" lon="0.501742">
        <ele>1678.1</ele>
        <time>2012-12-19T14:56:59Z</time>
      </trkpt>
      <trkpt lat="42.848409" lon="0.501806">
        <ele>1673.3</ele>
        <time>2012-12-19T14:57:14Z</time>
      </trkpt>
      <trkpt lat="42.848317" lon="0.501824">
        <ele>1669.5</ele>
        <time>2012-12-19T14:57:31Z</time>
      </trkpt>
      <trkpt lat="42.848230" lon="0.501735">
        <ele>1665.6</ele>
        <time>2012-12-19T14:58:26Z</time>
      </trkpt>
      <trkpt lat="42.848149" lon="0.501698">
        <ele>1660.3</ele>
        <time>2012-12-19T14:58:43Z</time>
      </trkpt>
      <trkpt lat="42.848079" lon="0.501619">
        <ele>1656.5</ele>
        <time>2012-12-19T14:59:05Z</time>
      </trkpt>
      <trkpt lat="42.848010" lon="0.501604">
        <ele>1651.2</ele>
        <time>2012-12-19T14:59:46Z</time>
      </trkpt>
      <trkpt lat="42.847920" lon="0.501628">
        <ele>1645.9</ele>
        <time>2012-12-19T15:00:01Z</time>
      </trkpt>
      <trkpt lat="42.847850" lon="0.501672">
        <ele>1640.6</ele>
        <time>2012-12-19T15:00:19Z</time>
      </trkpt>
      <trkpt lat="42.847780" lon="0.501607">
        <ele>1636.3</ele>
        <time>2012-12-19T15:01:03Z</time>
      </trkpt>
      <trkpt lat="42.847714" lon="0.501659">
        <ele>1631.0</ele>
        <time>2012-12-19T15:01:44Z</time>
      </trkpt>
      <trkpt lat="42.847617" lon="0.501713">
        <ele>1625.2</ele>
        <time>2012-12-19T15:02:15Z</time>
      </trkpt>
      <trkpt lat="42.847510" lon="0.501741">
        <ele>1618.5</ele>
        <time>2012-12-19T15:02:27Z</time>
      </trkpt>
      <trkpt lat="42.847411" lon="0.501781">
        <ele>1612.3</ele>
        <time>2012-12-19T15:02:39Z</time>
      </trkpt>
      <trkpt lat="42.847327" lon="0.501713">
        <ele>1607.9</ele>
        <time>2012-12-19T15:02:50Z</time>
      </trkpt>
      <trkpt lat="42.847250" lon="0.501604">
        <ele>1604.6</ele>
        <time>2012-12-19T15:03:06Z</time>
        <name>Piste 1600m</name>
      </trkpt>
      <trkpt lat="42.847286" lon="0.501651">
        <ele>1604.6</ele>
        <time>2012-12-19T15:06:01Z</time>
      </trkpt>
      <trkpt lat="42.847284" lon="0.501789">
        <ele>1602.7</ele>
        <time>2012-12-19T15:06:10Z</time>
      </trkpt>
      <trkpt lat="42.847279" lon="0.501953">
        <ele>1600.2</ele>
        <time>2012-12-19T15:06:59Z</time>
      </trkpt>
      <trkpt lat="42.847267" lon="0.502112">
        <ele>1599.3</ele>
        <time>2012-12-19T15:07:09Z</time>
      </trkpt>
      <trkpt lat="42.847287" lon="0.502262">
        <ele>1597.4</ele>
        <time>2012-12-19T15:07:19Z</time>
      </trkpt>
      <trkpt lat="42.847310" lon="0.502393">
        <ele>1594.5</ele>
        <time>2012-12-19T15:07:29Z</time>
      </trkpt>
      <trkpt lat="42.847351" lon="0.502530">
        <ele>1591.6</ele>
        <time>2012-12-19T15:07:56Z</time>
      </trkpt>
      <trkpt lat="42.847411" lon="0.502676">
        <ele>1590.6</ele>
        <time>2012-12-19T15:08:10Z</time>
      </trkpt>
      <trkpt lat="42.847468" lon="0.502848">
        <ele>1588.2</ele>
        <time>2012-12-19T15:08:23Z</time>
      </trkpt>
      <trkpt lat="42.847532" lon="0.503053">
        <ele>1584.9</ele>
        <time>2012-12-19T15:08:35Z</time>
      </trkpt>
      <trkpt lat="42.847569" lon="0.503218">
        <ele>1582.9</ele>
        <time>2012-12-19T15:08:55Z</time>
      </trkpt>
      <trkpt lat="42.847676" lon="0.503350">
        <ele>1582.0</ele>
        <time>2012-12-19T15:09:08Z</time>
      </trkpt>
      <trkpt lat="42.847786" lon="0.503361">
        <ele>1582.0</ele>
        <time>2012-12-19T15:09:19Z</time>
      </trkpt>
      <trkpt lat="42.847910" lon="0.503370">
        <ele>1580.1</ele>
        <time>2012-12-19T15:09:30Z</time>
      </trkpt>
      <trkpt lat="42.848051" lon="0.503417">
        <ele>1576.2</ele>
        <time>2012-12-19T15:09:43Z</time>
      </trkpt>
      <trkpt lat="42.848156" lon="0.503479">
        <ele>1574.8</ele>
        <time>2012-12-19T15:09:55Z</time>
      </trkpt>
      <trkpt lat="42.848081" lon="0.503562">
        <ele>1575.3</ele>
        <time>2012-12-19T15:13:44Z</time>
      </trkpt>
      <trkpt lat="42.848260" lon="0.503660">
        <ele>1572.8</ele>
        <time>2012-12-19T15:14:51Z</time>
      </trkpt>
      <trkpt lat="42.848356" lon="0.503717">
        <ele>1570.9</ele>
        <time>2012-12-19T15:15:08Z</time>
      </trkpt>
      <trkpt lat="42.848415" lon="0.503841">
        <ele>1568.1</ele>
        <time>2012-12-19T15:15:20Z</time>
      </trkpt>
      <trkpt lat="42.848470" lon="0.504018">
        <ele>1566.1</ele>
        <time>2012-12-19T15:15:35Z</time>
      </trkpt>
      <trkpt lat="42.848544" lon="0.504187">
        <ele>1563.2</ele>
        <time>2012-12-19T15:15:50Z</time>
      </trkpt>
      <trkpt lat="42.848610" lon="0.504296">
        <ele>1561.3</ele>
        <time>2012-12-19T15:16:01Z</time>
      </trkpt>
      <trkpt lat="42.848659" lon="0.504437">
        <ele>1558.9</ele>
        <time>2012-12-19T15:16:13Z</time>
      </trkpt>
      <trkpt lat="42.848667" lon="0.504629">
        <ele>1555.6</ele>
        <time>2012-12-19T15:16:27Z</time>
      </trkpt>
      <trkpt lat="42.848722" lon="0.504812">
        <ele>1552.7</ele>
        <time>2012-12-19T15:16:42Z</time>
      </trkpt>
      <trkpt lat="42.848765" lon="0.504975">
        <ele>1550.7</ele>
        <time>2012-12-19T15:16:55Z</time>
      </trkpt>
      <trkpt lat="42.848826" lon="0.505123">
        <ele>1547.9</ele>
        <time>2012-12-19T15:17:07Z</time>
      </trkpt>
      <trkpt lat="42.848884" lon="0.505223">
        <ele>1546.9</ele>
        <time>2012-12-19T15:17:22Z</time>
      </trkpt>
      <trkpt lat="42.848923" lon="0.505426">
        <ele>1544.0</ele>
        <time>2012-12-19T15:17:53Z</time>
      </trkpt>
      <trkpt lat="42.848989" lon="0.505565">
        <ele>1542.1</ele>
        <time>2012-12-19T15:18:07Z</time>
      </trkpt>
      <trkpt lat="42.849038" lon="0.505712">
        <ele>1539.7</ele>
        <time>2012-12-19T15:18:19Z</time>
      </trkpt>
      <trkpt lat="42.849077" lon="0.505884">
        <ele>1538.2</ele>
        <time>2012-12-19T15:18:32Z</time>
      </trkpt>
      <trkpt lat="42.849103" lon="0.506066">
        <ele>1534.9</ele>
        <time>2012-12-19T15:18:45Z</time>
      </trkpt>
      <trkpt lat="42.849144" lon="0.506235">
        <ele>1532.5</ele>
        <time>2012-12-19T15:18:59Z</time>
      </trkpt>
      <trkpt lat="42.849189" lon="0.506410">
        <ele>1530.1</ele>
        <time>2012-12-19T15:19:12Z</time>
      </trkpt>
      <trkpt lat="42.849236" lon="0.506584">
        <ele>1527.7</ele>
        <time>2012-12-19T15:19:25Z</time>
      </trkpt>
      <trkpt lat="42.849286" lon="0.506748">
        <ele>1524.8</ele>
        <time>2012-12-19T15:19:37Z</time>
      </trkpt>
      <trkpt lat="42.849323" lon="0.506919">
        <ele>1521.9</ele>
        <time>2012-12-19T15:19:50Z</time>
      </trkpt>
      <trkpt lat="42.849380" lon="0.507113">
        <ele>1520.5</ele>
        <time>2012-12-19T15:20:08Z</time>
      </trkpt>
      <trkpt lat="42.849381" lon="0.507232">
        <ele>1518.5</ele>
        <time>2012-12-19T15:20:57Z</time>
      </trkpt>
      <trkpt lat="42.849426" lon="0.507396">
        <ele>1516.6</ele>
        <time>2012-12-19T15:21:11Z</time>
      </trkpt>
      <trkpt lat="42.849478" lon="0.507579">
        <ele>1514.2</ele>
        <time>2012-12-19T15:21:25Z</time>
      </trkpt>
      <trkpt lat="42.849510" lon="0.507761">
        <ele>1512.8</ele>
        <time>2012-12-19T15:21:36Z</time>
      </trkpt>
      <trkpt lat="42.849532" lon="0.507922">
        <ele>1510.8</ele>
        <time>2012-12-19T15:21:50Z</time>
      </trkpt>
      <trkpt lat="42.849537" lon="0.508097">
        <ele>1509.9</ele>
        <time>2012-12-19T15:22:14Z</time>
      </trkpt>
      <trkpt lat="42.849608" lon="0.508259">
        <ele>1507.5</ele>
        <time>2012-12-19T15:22:30Z</time>
      </trkpt>
      <trkpt lat="42.849542" lon="0.508242">
        <ele>1505.6</ele>
        <time>2012-12-19T15:33:00Z</time>
      </trkpt>
      <trkpt lat="42.849415" lon="0.508192">
        <ele>1503.6</ele>
        <time>2012-12-19T15:33:12Z</time>
      </trkpt>
      <trkpt lat="42.849287" lon="0.508151">
        <ele>1501.7</ele>
        <time>2012-12-19T15:33:30Z</time>
      </trkpt>
      <trkpt lat="42.849170" lon="0.508055">
        <ele>1498.8</ele>
        <time>2012-12-19T15:33:41Z</time>
      </trkpt>
      <trkpt lat="42.849089" lon="0.507919">
        <ele>1496.9</ele>
        <time>2012-12-19T15:33:57Z</time>
      </trkpt>
      <trkpt lat="42.848974" lon="0.507840">
        <ele>1494.0</ele>
        <time>2012-12-19T15:34:16Z</time>
      </trkpt>
      <trkpt lat="42.848841" lon="0.507766">
        <ele>1493.6</ele>
        <time>2012-12-19T15:34:30Z</time>
      </trkpt>
      <trkpt lat="42.848749" lon="0.507607">
        <ele>1491.6</ele>
        <time>2012-12-19T15:34:43Z</time>
      </trkpt>
      <trkpt lat="42.848667" lon="0.507478">
        <ele>1488.7</ele>
        <time>2012-12-19T15:34:58Z</time>
      </trkpt>
      <trkpt lat="42.848566" lon="0.507373">
        <ele>1486.8</ele>
        <time>2012-12-19T15:35:10Z</time>
      </trkpt>
      <trkpt lat="42.848478" lon="0.507273">
        <ele>1484.9</ele>
        <time>2012-12-19T15:35:21Z</time>
      </trkpt>
      <trkpt lat="42.848358" lon="0.507157">
        <ele>1482.0</ele>
        <time>2012-12-19T15:35:35Z</time>
      </trkpt>
      <trkpt lat="42.848277" lon="0.507109">
        <ele>1480.1</ele>
        <time>2012-12-19T15:35:47Z</time>
      </trkpt>
      <trkpt lat="42.848148" lon="0.507075">
        <ele>1479.6</ele>
        <time>2012-12-19T15:36:00Z</time>
      </trkpt>
      <trkpt lat="42.848123" lon="0.506950">
        <ele>1478.2</ele>
        <time>2012-12-19T15:36:32Z</time>
      </trkpt>
      <trkpt lat="42.848106" lon="0.506826">
        <ele>1475.8</ele>
        <time>2012-12-19T15:36:46Z</time>
      </trkpt>
      <trkpt lat="42.848037" lon="0.506752">
        <ele>1474.3</ele>
        <time>2012-12-19T15:37:00Z</time>
      </trkpt>
      <trkpt lat="42.847951" lon="0.506874">
        <ele>1475.8</ele>
        <time>2012-12-19T15:37:24Z</time>
      </trkpt>
      <trkpt lat="42.847879" lon="0.507031">
        <ele>1476.2</ele>
        <time>2012-12-19T15:37:37Z</time>
      </trkpt>
      <trkpt lat="42.847793" lon="0.507122">
        <ele>1476.7</ele>
        <time>2012-12-19T15:37:47Z</time>
      </trkpt>
      <trkpt lat="42.847730" lon="0.507222">
        <ele>1477.7</ele>
        <time>2012-12-19T15:38:01Z</time>
      </trkpt>
      <trkpt lat="42.847638" lon="0.507356">
        <ele>1478.7</ele>
        <time>2012-12-19T15:38:17Z</time>
      </trkpt>
      <trkpt lat="42.847595" lon="0.507470">
        <ele>1478.2</ele>
        <time>2012-12-19T15:38:30Z</time>
      </trkpt>
      <trkpt lat="42.847524" lon="0.507678">
        <ele>1477.7</ele>
        <time>2012-12-19T15:38:46Z</time>
      </trkpt>
      <trkpt lat="42.847531" lon="0.507810">
        <ele>1476.7</ele>
        <time>2012-12-19T15:38:58Z</time>
      </trkpt>
      <trkpt lat="42.847519" lon="0.507951">
        <ele>1475.3</ele>
        <time>2012-12-19T15:39:09Z</time>
      </trkpt>
      <trkpt lat="42.847480" lon="0.508117">
        <ele>1473.8</ele>
        <time>2012-12-19T15:39:21Z</time>
      </trkpt>
      <trkpt lat="42.847481" lon="0.508316">
        <ele>1472.9</ele>
        <time>2012-12-19T15:39:35Z</time>
      </trkpt>
      <trkpt lat="42.847436" lon="0.508476">
        <ele>1470.9</ele>
        <time>2012-12-19T15:39:49Z</time>
      </trkpt>
      <trkpt lat="42.847399" lon="0.508677">
        <ele>1469.0</ele>
        <time>2012-12-19T15:40:03Z</time>
      </trkpt>
      <trkpt lat="42.847373" lon="0.508841">
        <ele>1466.6</ele>
        <time>2012-12-19T15:40:15Z</time>
      </trkpt>
      <trkpt lat="42.847371" lon="0.508976">
        <ele>1465.2</ele>
        <time>2012-12-19T15:40:26Z</time>
      </trkpt>
      <trkpt lat="42.847356" lon="0.509117">
        <ele>1464.7</ele>
        <time>2012-12-19T15:40:36Z</time>
      </trkpt>
      <trkpt lat="42.847341" lon="0.509246">
        <ele>1463.3</ele>
        <time>2012-12-19T15:40:45Z</time>
      </trkpt>
      <trkpt lat="42.847324" lon="0.509381">
        <ele>1461.8</ele>
        <time>2012-12-19T15:40:55Z</time>
        <name>Piste 1450m</name>
      </trkpt>
      <trkpt lat="42.847272" lon="0.509469">
        <ele>1459.4</ele>
        <time>2012-12-19T15:41:09Z</time>
      </trkpt>
      <trkpt lat="42.847288" lon="0.509552">
        <ele>1458.5</ele>
        <time>2012-12-19T15:41:27Z</time>
      </trkpt>
      <trkpt lat="42.847259" lon="0.509699">
        <ele>1455.6</ele>
        <time>2012-12-19T15:41:38Z</time>
      </trkpt>
      <trkpt lat="42.847244" lon="0.509866">
        <ele>1452.7</ele>
        <time>2012-12-19T15:41:50Z</time>
      </trkpt>
      <trkpt lat="42.847252" lon="0.510029">
        <ele>1448.8</ele>
        <time>2012-12-19T15:42:04Z</time>
      </trkpt>
      <trkpt lat="42.847223" lon="0.510182">
        <ele>1446.4</ele>
        <time>2012-12-19T15:42:15Z</time>
      </trkpt>
      <trkpt lat="42.847274" lon="0.510339">
        <ele>1442.6</ele>
        <time>2012-12-19T15:42:29Z</time>
      </trkpt>
      <trkpt lat="42.847363" lon="0.510493">
        <ele>1440.2</ele>
        <time>2012-12-19T15:42:40Z</time>
      </trkpt>
      <trkpt lat="42.847449" lon="0.510564">
        <ele>1436.8</ele>
        <time>2012-12-19T15:42:49Z</time>
      </trkpt>
      <trkpt lat="42.847499" lon="0.510682">
        <ele>1434.4</ele>
        <time>2012-12-19T15:42:59Z</time>
      </trkpt>
      <trkpt lat="42.847525" lon="0.510822">
        <ele>1431.5</ele>
        <time>2012-12-19T15:43:10Z</time>
      </trkpt>
      <trkpt lat="42.847608" lon="0.510914">
        <ele>1430.1</ele>
        <time>2012-12-19T15:43:20Z</time>
      </trkpt>
      <trkpt lat="42.847681" lon="0.511045">
        <ele>1427.7</ele>
        <time>2012-12-19T15:43:30Z</time>
      </trkpt>
      <trkpt lat="42.847771" lon="0.511159">
        <ele>1425.8</ele>
        <time>2012-12-19T15:43:41Z</time>
      </trkpt>
      <trkpt lat="42.847826" lon="0.511284">
        <ele>1423.8</ele>
        <time>2012-12-19T15:43:50Z</time>
      </trkpt>
      <trkpt lat="42.847871" lon="0.511418">
        <ele>1422.4</ele>
        <time>2012-12-19T15:44:01Z</time>
      </trkpt>
      <trkpt lat="42.847945" lon="0.511527">
        <ele>1420.0</ele>
        <time>2012-12-19T15:44:11Z</time>
      </trkpt>
      <trkpt lat="42.848047" lon="0.511585">
        <ele>1418.6</ele>
        <time>2012-12-19T15:44:21Z</time>
      </trkpt>
      <trkpt lat="42.848104" lon="0.511663">
        <ele>1416.2</ele>
        <time>2012-12-19T15:44:31Z</time>
      </trkpt>
      <trkpt lat="42.848187" lon="0.511789">
        <ele>1412.8</ele>
        <time>2012-12-19T15:44:43Z</time>
      </trkpt>
      <trkpt lat="42.848295" lon="0.511891">
        <ele>1409.9</ele>
        <time>2012-12-19T15:44:56Z</time>
      </trkpt>
      <trkpt lat="42.848387" lon="0.511976">
        <ele>1407.5</ele>
        <time>2012-12-19T15:45:07Z</time>
      </trkpt>
      <trkpt lat="42.848475" lon="0.512089">
        <ele>1404.6</ele>
        <time>2012-12-19T15:45:19Z</time>
      </trkpt>
      <trkpt lat="42.848571" lon="0.512216">
        <ele>1402.2</ele>
        <time>2012-12-19T15:45:34Z</time>
      </trkpt>
      <trkpt lat="42.848653" lon="0.512343">
        <ele>1399.3</ele>
        <time>2012-12-19T15:45:44Z</time>
      </trkpt>
      <trkpt lat="42.848724" lon="0.512470">
        <ele>1397.4</ele>
        <time>2012-12-19T15:45:56Z</time>
      </trkpt>
      <trkpt lat="42.848807" lon="0.512578">
        <ele>1394.5</ele>
        <time>2012-12-19T15:46:06Z</time>
      </trkpt>
      <trkpt lat="42.848886" lon="0.512694">
        <ele>1392.6</ele>
        <time>2012-12-19T15:46:17Z</time>
      </trkpt>
      <trkpt lat="42.848974" lon="0.512777">
        <ele>1390.2</ele>
        <time>2012-12-19T15:46:25Z</time>
      </trkpt>
      <trkpt lat="42.849042" lon="0.512891">
        <ele>1388.3</ele>
        <time>2012-12-19T15:46:37Z</time>
      </trkpt>
      <trkpt lat="42.849129" lon="0.512981">
        <ele>1385.4</ele>
        <time>2012-12-19T15:46:47Z</time>
      </trkpt>
      <trkpt lat="42.849184" lon="0.513116">
        <ele>1383.5</ele>
        <time>2012-12-19T15:46:57Z</time>
      </trkpt>
      <trkpt lat="42.849247" lon="0.513228">
        <ele>1380.6</ele>
        <time>2012-12-19T15:47:08Z</time>
      </trkpt>
      <trkpt lat="42.849338" lon="0.513330">
        <ele>1378.2</ele>
        <time>2012-12-19T15:47:20Z</time>
      </trkpt>
      <trkpt lat="42.849448" lon="0.513439">
        <ele>1375.3</ele>
        <time>2012-12-19T15:47:32Z</time>
      </trkpt>
      <trkpt lat="42.849506" lon="0.513581">
        <ele>1372.9</ele>
        <time>2012-12-19T15:47:45Z</time>
      </trkpt>
      <trkpt lat="42.849542" lon="0.513826">
        <ele>1370.0</ele>
        <time>2012-12-19T15:47:58Z</time>
      </trkpt>
      <trkpt lat="42.849646" lon="0.513976">
        <ele>1366.7</ele>
        <time>2012-12-19T15:48:12Z</time>
      </trkpt>
      <trkpt lat="42.849680" lon="0.514151">
        <ele>1364.7</ele>
        <time>2012-12-19T15:48:32Z</time>
      </trkpt>
      <trkpt lat="42.849699" lon="0.514287">
        <ele>1362.8</ele>
        <time>2012-12-19T15:48:53Z</time>
      </trkpt>
      <trkpt lat="42.849722" lon="0.514411">
        <ele>1360.9</ele>
        <time>2012-12-19T15:49:03Z</time>
      </trkpt>
      <trkpt lat="42.849723" lon="0.514555">
        <ele>1358.5</ele>
        <time>2012-12-19T15:49:18Z</time>
      </trkpt>
      <trkpt lat="42.849711" lon="0.514685">
        <ele>1357.0</ele>
        <time>2012-12-19T15:49:27Z</time>
      </trkpt>
      <trkpt lat="42.849714" lon="0.514826">
        <ele>1355.1</ele>
        <time>2012-12-19T15:49:37Z</time>
      </trkpt>
      <trkpt lat="42.849713" lon="0.514970">
        <ele>1352.2</ele>
        <time>2012-12-19T15:49:48Z</time>
      </trkpt>
      <trkpt lat="42.849706" lon="0.515110">
        <ele>1349.8</ele>
        <time>2012-12-19T15:49:59Z</time>
      </trkpt>
      <trkpt lat="42.849711" lon="0.515251">
        <ele>1347.4</ele>
        <time>2012-12-19T15:50:09Z</time>
      </trkpt>
      <trkpt lat="42.849707" lon="0.515386">
        <ele>1346.0</ele>
        <time>2012-12-19T15:50:19Z</time>
      </trkpt>
      <trkpt lat="42.849690" lon="0.515543">
        <ele>1344.1</ele>
        <time>2012-12-19T15:50:29Z</time>
      </trkpt>
      <trkpt lat="42.849675" lon="0.515689">
        <ele>1342.1</ele>
        <time>2012-12-19T15:50:39Z</time>
      </trkpt>
      <trkpt lat="42.849660" lon="0.515833">
        <ele>1339.7</ele>
        <time>2012-12-19T15:50:49Z</time>
      </trkpt>
      <trkpt lat="42.849655" lon="0.515970">
        <ele>1337.3</ele>
        <time>2012-12-19T15:50:58Z</time>
      </trkpt>
      <trkpt lat="42.849661" lon="0.516105">
        <ele>1334.9</ele>
        <time>2012-12-19T15:51:08Z</time>
      </trkpt>
      <trkpt lat="42.849636" lon="0.516257">
        <ele>1332.5</ele>
        <time>2012-12-19T15:51:19Z</time>
      </trkpt>
      <trkpt lat="42.849631" lon="0.516382">
        <ele>1330.1</ele>
        <time>2012-12-19T15:51:29Z</time>
      </trkpt>
      <trkpt lat="42.849582" lon="0.516520">
        <ele>1328.7</ele>
        <time>2012-12-19T15:51:39Z</time>
      </trkpt>
      <trkpt lat="42.849538" lon="0.516660">
        <ele>1326.3</ele>
        <time>2012-12-19T15:51:49Z</time>
      </trkpt>
      <trkpt lat="42.849497" lon="0.516790">
        <ele>1323.9</ele>
        <time>2012-12-19T15:51:58Z</time>
      </trkpt>
      <trkpt lat="42.849476" lon="0.516934">
        <ele>1321.0</ele>
        <time>2012-12-19T15:52:10Z</time>
      </trkpt>
      <trkpt lat="42.849450" lon="0.517073">
        <ele>1318.1</ele>
        <time>2012-12-19T15:52:20Z</time>
      </trkpt>
      <trkpt lat="42.849439" lon="0.517224">
        <ele>1317.1</ele>
        <time>2012-12-19T15:52:30Z</time>
      </trkpt>
      <trkpt lat="42.849406" lon="0.517377">
        <ele>1314.3</ele>
        <time>2012-12-19T15:52:40Z</time>
      </trkpt>
      <trkpt lat="42.849400" lon="0.517508">
        <ele>1311.9</ele>
        <time>2012-12-19T15:52:49Z</time>
      </trkpt>
      <trkpt lat="42.849359" lon="0.517644">
        <ele>1309.9</ele>
        <time>2012-12-19T15:52:59Z</time>
      </trkpt>
      <trkpt lat="42.849330" lon="0.517783">
        <ele>1307.5</ele>
        <time>2012-12-19T15:53:09Z</time>
      </trkpt>
      <trkpt lat="42.849286" lon="0.517925">
        <ele>1304.7</ele>
        <time>2012-12-19T15:53:36Z</time>
      </trkpt>
      <trkpt lat="42.849255" lon="0.518059">
        <ele>1303.2</ele>
        <time>2012-12-19T15:53:48Z</time>
      </trkpt>
      <trkpt lat="42.849208" lon="0.518181">
        <ele>1300.8</ele>
        <time>2012-12-19T15:53:58Z</time>
      </trkpt>
      <trkpt lat="42.849192" lon="0.518332">
        <ele>1299.4</ele>
        <time>2012-12-19T15:54:08Z</time>
      </trkpt>
      <trkpt lat="42.849121" lon="0.518445">
        <ele>1297.9</ele>
        <time>2012-12-19T15:54:16Z</time>
      </trkpt>
      <trkpt lat="42.849103" lon="0.518566">
        <ele>1293.6</ele>
        <time>2012-12-19T15:54:26Z</time>
      </trkpt>
      <trkpt lat="42.849188" lon="0.518663">
        <ele>1287.3</ele>
        <time>2012-12-19T15:54:38Z</time>
      </trkpt>
      <trkpt lat="42.849283" lon="0.518698">
        <ele>1284.5</ele>
        <time>2012-12-19T15:54:44Z</time>
      </trkpt>
      <trkpt lat="42.849463" lon="0.518604">
        <ele>1283.0</ele>
        <time>2012-12-19T15:55:28Z</time>
      </trkpt>
      <trkpt lat="42.849552" lon="0.518545">
        <ele>1280.6</ele>
        <time>2012-12-19T15:55:36Z</time>
      </trkpt>
      <trkpt lat="42.849633" lon="0.518464">
        <ele>1278.7</ele>
        <time>2012-12-19T15:55:44Z</time>
      </trkpt>
      <trkpt lat="42.849714" lon="0.518425">
        <ele>1276.8</ele>
        <time>2012-12-19T15:55:52Z</time>
      </trkpt>
      <trkpt lat="42.849800" lon="0.518420">
        <ele>1274.4</ele>
        <time>2012-12-19T15:56:00Z</time>
      </trkpt>
      <trkpt lat="42.849911" lon="0.518412">
        <ele>1272.4</ele>
        <time>2012-12-19T15:56:08Z</time>
      </trkpt>
      <trkpt lat="42.849992" lon="0.518398">
        <ele>1270.5</ele>
        <time>2012-12-19T15:56:16Z</time>
      </trkpt>
      <trkpt lat="42.850064" lon="0.518355">
        <ele>1269.1</ele>
        <time>2012-12-19T15:56:27Z</time>
      </trkpt>
      <trkpt lat="42.850104" lon="0.518303">
        <ele>1267.6</ele>
        <time>2012-12-19T15:56:36Z</time>
      </trkpt>
      <trkpt lat="42.850188" lon="0.518204">
        <ele>1265.7</ele>
        <time>2012-12-19T15:56:48Z</time>
      </trkpt>
      <trkpt lat="42.850333" lon="0.518040">
        <ele>1263.8</ele>
        <time>2012-12-19T15:57:01Z</time>
      </trkpt>
      <trkpt lat="42.850429" lon="0.517928">
        <ele>1261.9</ele>
        <time>2012-12-19T15:57:12Z</time>
      </trkpt>
      <trkpt lat="42.850485" lon="0.517809">
        <ele>1259.9</ele>
        <time>2012-12-19T15:57:23Z</time>
      </trkpt>
      <trkpt lat="42.850460" lon="0.517720">
        <ele>1258.0</ele>
        <time>2012-12-19T15:57:45Z</time>
      </trkpt>
      <trkpt lat="42.850585" lon="0.517658">
        <ele>1256.1</ele>
        <time>2012-12-19T15:58:01Z</time>
      </trkpt>
      <trkpt lat="42.850743" lon="0.517612">
        <ele>1254.2</ele>
        <time>2012-12-19T15:58:20Z</time>
      </trkpt>
      <trkpt lat="42.850896" lon="0.517606">
        <ele>1252.7</ele>
        <time>2012-12-19T15:58:32Z</time>
      </trkpt>
      <trkpt lat="42.851020" lon="0.517567">
        <ele>1251.3</ele>
        <time>2012-12-19T15:58:49Z</time>
      </trkpt>
      <trkpt lat="42.851090" lon="0.517475">
        <ele>1250.3</ele>
        <time>2012-12-19T15:58:58Z</time>
      </trkpt>
      <trkpt lat="42.851170" lon="0.517398">
        <ele>1248.9</ele>
        <time>2012-12-19T15:59:07Z</time>
      </trkpt>
      <trkpt lat="42.851236" lon="0.517290">
        <ele>1247.4</ele>
        <time>2012-12-19T15:59:19Z</time>
      </trkpt>
      <trkpt lat="42.851317" lon="0.517194">
        <ele>1247.0</ele>
        <time>2012-12-19T15:59:29Z</time>
      </trkpt>
      <trkpt lat="42.851419" lon="0.517077">
        <ele>1246.0</ele>
        <time>2012-12-19T16:00:16Z</time>
      </trkpt>
      <trkpt lat="42.851511" lon="0.517079">
        <ele>1246.0</ele>
        <time>2012-12-19T16:00:25Z</time>
      </trkpt>
      <trkpt lat="42.851583" lon="0.517171">
        <ele>1246.0</ele>
        <time>2012-12-19T16:00:35Z</time>
      </trkpt>
      <trkpt lat="42.851657" lon="0.517283">
        <ele>1246.5</ele>
        <time>2012-12-19T16:00:44Z</time>
      </trkpt>
      <trkpt lat="42.851693" lon="0.517399">
        <ele>1247.0</ele>
        <time>2012-12-19T16:00:54Z</time>
      </trkpt>
      <trkpt lat="42.851744" lon="0.517536">
        <ele>1247.9</ele>
        <time>2012-12-19T16:01:05Z</time>
      </trkpt>
      <trkpt lat="42.851808" lon="0.517667">
        <ele>1249.8</ele>
        <time>2012-12-19T16:01:17Z</time>
      </trkpt>
      <trkpt lat="42.851851" lon="0.517788">
        <ele>1250.8</ele>
        <time>2012-12-19T16:01:29Z</time>
      </trkpt>
      <trkpt lat="42.851906" lon="0.517897">
        <ele>1252.2</ele>
        <time>2012-12-19T16:01:40Z</time>
      </trkpt>
      <trkpt lat="42.851968" lon="0.518004">
        <ele>1253.2</ele>
        <time>2012-12-19T16:01:53Z</time>
      </trkpt>
      <trkpt lat="42.852039" lon="0.518086">
        <ele>1255.1</ele>
        <time>2012-12-19T16:02:09Z</time>
      </trkpt>
      <trkpt lat="42.852174" lon="0.518158">
        <ele>1256.1</ele>
        <time>2012-12-19T16:03:10Z</time>
      </trkpt>
      <trkpt lat="42.852242" lon="0.518258">
        <ele>1257.1</ele>
        <time>2012-12-19T16:03:20Z</time>
      </trkpt>
      <trkpt lat="42.852330" lon="0.518331">
        <ele>1256.6</ele>
        <time>2012-12-19T16:03:28Z</time>
      </trkpt>
      <trkpt lat="42.852397" lon="0.518389">
        <ele>1257.1</ele>
        <time>2012-12-19T16:03:42Z</time>
      </trkpt>
      <trkpt lat="42.852470" lon="0.518519">
        <ele>1257.5</ele>
        <time>2012-12-19T16:03:51Z</time>
      </trkpt>
      <trkpt lat="42.852546" lon="0.518614">
        <ele>1257.1</ele>
        <time>2012-12-19T16:03:59Z</time>
      </trkpt>
      <trkpt lat="42.852572" lon="0.518755">
        <ele>1257.5</ele>
        <time>2012-12-19T16:04:07Z</time>
      </trkpt>
      <trkpt lat="42.852528" lon="0.518883">
        <ele>1258.5</ele>
        <time>2012-12-19T16:04:15Z</time>
      </trkpt>
      <trkpt lat="42.852438" lon="0.518956">
        <ele>1259.0</ele>
        <time>2012-12-19T16:04:24Z</time>
      </trkpt>
      <trkpt lat="42.852343" lon="0.518964">
        <ele>1259.5</ele>
        <time>2012-12-19T16:04:32Z</time>
      </trkpt>
      <trkpt lat="42.852238" lon="0.518968">
        <ele>1260.4</ele>
        <time>2012-12-19T16:04:41Z</time>
      </trkpt>
      <trkpt lat="42.852125" lon="0.519000">
        <ele>1260.9</ele>
        <time>2012-12-19T16:04:52Z</time>
      </trkpt>
      <trkpt lat="42.852077" lon="0.518983">
        <ele>1259.9</ele>
        <time>2012-12-19T16:05:46Z</time>
      </trkpt>
    </trkseg>
  </trk>
</gpx>

